<?xml version="1.0" encoding="UTF-8" standalone="no" ?>
<gpx xmlns="http://www.topografix.com/GPX/1/1" xmlns:xsi="http://www.w3.org/2001/XMLSchema-instance" xsi:schemaLocation="http://www.topografix.com/GPX/1/1 http://www.topografix.com/GPX/1/1/gpx.xsd" version="1.1" creator="VisuGPX - https://www.visugpx.com">
  <metadata>
    <name>tour de st Mandrier</name>
    <desc><![CDATA[tour de st Mandrier en kayak.]]></desc>
  </metadata>
  <trk>
    <name><![CDATA[cept]]></name>
    <trkseg>
      <trkpt lat="43.09183" lon="6.02482">
        <ele>-4.1885986328125</ele>
        <time>2015-07-22T05:48:58Z</time>
      </trkpt>
      <trkpt lat="43.09183" lon="6.02482">
        <ele>-8.9952392578125</ele>
        <time>2015-07-22T05:49:01Z</time>
      </trkpt>
      <trkpt lat="43.09183" lon="6.02482">
        <ele>-8.9952392578125</ele>
        <time>2015-07-22T05:49:02Z</time>
      </trkpt>
      <trkpt lat="43.09183" lon="6.02482">
        <ele>-3.7078857421875</ele>
        <time>2015-07-22T05:49:04Z</time>
      </trkpt>
      <trkpt lat="43.09183" lon="6.02482">
        <ele>-4.6693115234375</ele>
        <time>2015-07-22T05:49:05Z</time>
      </trkpt>
      <trkpt lat="43.09184" lon="6.02479">
        <ele>-4.1885986328125</ele>
        <time>2015-07-22T05:49:24Z</time>
      </trkpt>
      <trkpt lat="43.09184" lon="6.0248">
        <ele>-5.14990234375</ele>
        <time>2015-07-22T05:49:29Z</time>
      </trkpt>
      <trkpt lat="43.09192" lon="6.02488">
        <ele>-4.1885986328125</ele>
        <time>2015-07-22T05:49:49Z</time>
      </trkpt>
      <trkpt lat="43.09202" lon="6.02495">
        <ele>-3.227294921875</ele>
        <time>2015-07-22T05:50:04Z</time>
      </trkpt>
      <trkpt lat="43.09212" lon="6.02489">
        <ele>-1.7852783203125</ele>
        <time>2015-07-22T05:50:15Z</time>
      </trkpt>
      <trkpt lat="43.09208" lon="6.02486">
        <ele>-2.2659912109375</ele>
        <time>2015-07-22T05:50:19Z</time>
      </trkpt>
      <trkpt lat="43.09211" lon="6.02476">
        <ele>-3.227294921875</ele>
        <time>2015-07-22T05:50:24Z</time>
      </trkpt>
      <trkpt lat="43.09211" lon="6.0247">
        <ele>-2.2659912109375</ele>
        <time>2015-07-22T05:50:26Z</time>
      </trkpt>
      <trkpt lat="43.09206" lon="6.02439">
        <ele>-2.7467041015625</ele>
        <time>2015-07-22T05:50:40Z</time>
      </trkpt>
      <trkpt lat="43.09209" lon="6.02494">
        <ele>-2.2659912109375</ele>
        <time>2015-07-22T05:50:57Z</time>
      </trkpt>
      <trkpt lat="43.09199" lon="6.02496">
        <ele>-1.7852783203125</ele>
        <time>2015-07-22T05:51:09Z</time>
      </trkpt>
      <trkpt lat="43.09193" lon="6.02492">
        <ele>-2.7467041015625</ele>
        <time>2015-07-22T05:51:14Z</time>
      </trkpt>
      <trkpt lat="43.09184" lon="6.02486">
        <ele>-2.2659912109375</ele>
        <time>2015-07-22T05:51:21Z</time>
      </trkpt>
      <trkpt lat="43.09183" lon="6.02481">
        <ele>-3.7078857421875</ele>
        <time>2015-07-22T05:51:40Z</time>
      </trkpt>
      <trkpt lat="43.09184" lon="6.02482">
        <ele>-8.033935546875</ele>
        <time>2015-07-22T05:51:41Z</time>
      </trkpt>
      <trkpt lat="43.09184" lon="6.0248">
        <ele>-0.8240966796875</ele>
        <time>2015-07-22T05:51:44Z</time>
      </trkpt>
      <trkpt lat="43.09184" lon="6.0248">
        <ele>-3.7078857421875</ele>
        <time>2015-07-22T05:51:45Z</time>
      </trkpt>
      <trkpt lat="43.09184" lon="6.02479">
        <ele>-3.227294921875</ele>
        <time>2015-07-22T05:52:12Z</time>
      </trkpt>
      <trkpt lat="43.09182" lon="6.02476">
        <ele>-4.6693115234375</ele>
        <time>2015-07-22T05:52:33Z</time>
      </trkpt>
      <trkpt lat="43.09183" lon="6.02479">
        <ele>-3.227294921875</ele>
        <time>2015-07-22T05:52:44Z</time>
      </trkpt>
      <trkpt lat="43.09176" lon="6.02472">
        <ele>-12.840454101562</ele>
        <time>2015-07-22T05:53:01Z</time>
      </trkpt>
      <trkpt lat="43.09176" lon="6.02472">
        <ele>3.501953125</ele>
        <time>2015-07-22T05:53:02Z</time>
      </trkpt>
      <trkpt lat="43.09176" lon="6.02472">
        <ele>-4.6693115234375</ele>
        <time>2015-07-22T05:53:03Z</time>
      </trkpt>
      <trkpt lat="43.09175" lon="6.0246">
        <ele>-4.6693115234375</ele>
        <time>2015-07-22T05:53:26Z</time>
      </trkpt>
      <trkpt lat="43.0917" lon="6.02451">
        <ele>-4.1885986328125</ele>
        <time>2015-07-22T05:53:39Z</time>
      </trkpt>
      <trkpt lat="43.09167" lon="6.02443">
        <ele>-4.6693115234375</ele>
        <time>2015-07-22T05:53:59Z</time>
      </trkpt>
      <trkpt lat="43.09165" lon="6.02435">
        <ele>-4.6693115234375</ele>
        <time>2015-07-22T05:54:19Z</time>
      </trkpt>
      <trkpt lat="43.09164" lon="6.0242">
        <ele>-4.1885986328125</ele>
        <time>2015-07-22T05:54:33Z</time>
      </trkpt>
      <trkpt lat="43.09173" lon="6.02403">
        <ele>-3.7078857421875</ele>
        <time>2015-07-22T05:54:44Z</time>
      </trkpt>
      <trkpt lat="43.0916" lon="6.02331">
        <ele>-3.7078857421875</ele>
        <time>2015-07-22T05:55:09Z</time>
      </trkpt>
      <trkpt lat="43.09143" lon="6.02273">
        <ele>-3.7078857421875</ele>
        <time>2015-07-22T05:55:27Z</time>
      </trkpt>
      <trkpt lat="43.09126" lon="6.02202">
        <ele>-3.7078857421875</ele>
        <time>2015-07-22T05:55:49Z</time>
      </trkpt>
      <trkpt lat="43.09102" lon="6.02132">
        <ele>-3.7078857421875</ele>
        <time>2015-07-22T05:56:11Z</time>
      </trkpt>
      <trkpt lat="43.0908" lon="6.02074">
        <ele>-3.7078857421875</ele>
        <time>2015-07-22T05:56:30Z</time>
      </trkpt>
      <trkpt lat="43.0906" lon="6.02017">
        <ele>-3.227294921875</ele>
        <time>2015-07-22T05:56:49Z</time>
      </trkpt>
      <trkpt lat="43.09042" lon="6.01966">
        <ele>-5.14990234375</ele>
        <time>2015-07-22T05:57:08Z</time>
      </trkpt>
      <trkpt lat="43.09041" lon="6.01964">
        <ele>-1.3046875</ele>
        <time>2015-07-22T05:57:09Z</time>
      </trkpt>
      <trkpt lat="43.09023" lon="6.01921">
        <ele>-2.7467041015625</ele>
        <time>2015-07-22T05:57:26Z</time>
      </trkpt>
      <trkpt lat="43.09007" lon="6.01879">
        <ele>-2.7467041015625</ele>
        <time>2015-07-22T05:57:42Z</time>
      </trkpt>
      <trkpt lat="43.08989" lon="6.0183">
        <ele>-2.7467041015625</ele>
        <time>2015-07-22T05:58:00Z</time>
      </trkpt>
      <trkpt lat="43.08974" lon="6.01787">
        <ele>-3.227294921875</ele>
        <time>2015-07-22T05:58:17Z</time>
      </trkpt>
      <trkpt lat="43.08959" lon="6.01748">
        <ele>-2.2659912109375</ele>
        <time>2015-07-22T05:58:31Z</time>
      </trkpt>
      <trkpt lat="43.08942" lon="6.01697">
        <ele>-3.227294921875</ele>
        <time>2015-07-22T05:58:49Z</time>
      </trkpt>
      <trkpt lat="43.08922" lon="6.01644">
        <ele>-3.227294921875</ele>
        <time>2015-07-22T05:59:08Z</time>
      </trkpt>
      <trkpt lat="43.08905" lon="6.01588">
        <ele>-3.227294921875</ele>
        <time>2015-07-22T05:59:28Z</time>
      </trkpt>
      <trkpt lat="43.08886" lon="6.01528">
        <ele>-3.227294921875</ele>
        <time>2015-07-22T05:59:49Z</time>
      </trkpt>
      <trkpt lat="43.08874" lon="6.01488">
        <ele>-3.7078857421875</ele>
        <time>2015-07-22T06:00:03Z</time>
      </trkpt>
      <trkpt lat="43.08855" lon="6.01432">
        <ele>-3.7078857421875</ele>
        <time>2015-07-22T06:00:24Z</time>
      </trkpt>
      <trkpt lat="43.08854" lon="6.01429">
        <ele>-4.1885986328125</ele>
        <time>2015-07-22T06:00:25Z</time>
      </trkpt>
      <trkpt lat="43.08842" lon="6.01384">
        <ele>-4.1885986328125</ele>
        <time>2015-07-22T06:00:40Z</time>
      </trkpt>
      <trkpt lat="43.08818" lon="6.01312">
        <ele>-3.7078857421875</ele>
        <time>2015-07-22T06:01:04Z</time>
      </trkpt>
      <trkpt lat="43.08797" lon="6.01246">
        <ele>-3.227294921875</ele>
        <time>2015-07-22T06:01:28Z</time>
      </trkpt>
      <trkpt lat="43.08782" lon="6.01205">
        <ele>-3.7078857421875</ele>
        <time>2015-07-22T06:01:44Z</time>
      </trkpt>
      <trkpt lat="43.08762" lon="6.01152">
        <ele>-3.7078857421875</ele>
        <time>2015-07-22T06:02:03Z</time>
      </trkpt>
      <trkpt lat="43.08744" lon="6.01107">
        <ele>-4.1885986328125</ele>
        <time>2015-07-22T06:02:19Z</time>
      </trkpt>
      <trkpt lat="43.08727" lon="6.0106">
        <ele>-4.1885986328125</ele>
        <time>2015-07-22T06:02:36Z</time>
      </trkpt>
      <trkpt lat="43.08707" lon="6.00999">
        <ele>-3.7078857421875</ele>
        <time>2015-07-22T06:02:57Z</time>
      </trkpt>
      <trkpt lat="43.08691" lon="6.00953">
        <ele>-3.227294921875</ele>
        <time>2015-07-22T06:03:14Z</time>
      </trkpt>
      <trkpt lat="43.0867" lon="6.00887">
        <ele>-3.227294921875</ele>
        <time>2015-07-22T06:03:36Z</time>
      </trkpt>
      <trkpt lat="43.08657" lon="6.00837">
        <ele>-3.227294921875</ele>
        <time>2015-07-22T06:03:55Z</time>
      </trkpt>
      <trkpt lat="43.08639" lon="6.00786">
        <ele>-3.227294921875</ele>
        <time>2015-07-22T06:04:11Z</time>
      </trkpt>
      <trkpt lat="43.08615" lon="6.00702">
        <ele>-2.7467041015625</ele>
        <time>2015-07-22T06:04:39Z</time>
      </trkpt>
      <trkpt lat="43.08594" lon="6.00638">
        <ele>-2.2659912109375</ele>
        <time>2015-07-22T06:05:01Z</time>
      </trkpt>
      <trkpt lat="43.08575" lon="6.00587">
        <ele>-2.2659912109375</ele>
        <time>2015-07-22T06:05:19Z</time>
      </trkpt>
      <trkpt lat="43.08559" lon="6.00549">
        <ele>-2.2659912109375</ele>
        <time>2015-07-22T06:05:33Z</time>
      </trkpt>
      <trkpt lat="43.08537" lon="6.00484">
        <ele>-2.2659912109375</ele>
        <time>2015-07-22T06:05:54Z</time>
      </trkpt>
      <trkpt lat="43.08513" lon="6.00412">
        <ele>-2.7467041015625</ele>
        <time>2015-07-22T06:06:19Z</time>
      </trkpt>
      <trkpt lat="43.08486" lon="6.00336">
        <ele>-2.7467041015625</ele>
        <time>2015-07-22T06:06:44Z</time>
      </trkpt>
      <trkpt lat="43.08467" lon="6.00276">
        <ele>-2.2659912109375</ele>
        <time>2015-07-22T06:07:05Z</time>
      </trkpt>
      <trkpt lat="43.0845" lon="6.00224">
        <ele>-2.2659912109375</ele>
        <time>2015-07-22T06:07:24Z</time>
      </trkpt>
      <trkpt lat="43.08436" lon="6.00172">
        <ele>-2.7467041015625</ele>
        <time>2015-07-22T06:07:41Z</time>
      </trkpt>
      <trkpt lat="43.08422" lon="6.00129">
        <ele>-2.2659912109375</ele>
        <time>2015-07-22T06:07:57Z</time>
      </trkpt>
      <trkpt lat="43.08404" lon="6.00077">
        <ele>-1.7852783203125</ele>
        <time>2015-07-22T06:08:14Z</time>
      </trkpt>
      <trkpt lat="43.08387" lon="6.00024">
        <ele>-1.7852783203125</ele>
        <time>2015-07-22T06:08:32Z</time>
      </trkpt>
      <trkpt lat="43.08349" lon="5.99907">
        <ele>-2.7467041015625</ele>
        <time>2015-07-22T06:09:09Z</time>
      </trkpt>
      <trkpt lat="43.08333" lon="5.99851">
        <ele>-2.7467041015625</ele>
        <time>2015-07-22T06:09:29Z</time>
      </trkpt>
      <trkpt lat="43.08309" lon="5.99777">
        <ele>-2.2659912109375</ele>
        <time>2015-07-22T06:09:54Z</time>
      </trkpt>
      <trkpt lat="43.08277" lon="5.99656">
        <ele>-2.2659912109375</ele>
        <time>2015-07-22T06:10:29Z</time>
      </trkpt>
      <trkpt lat="43.08253" lon="5.99579">
        <ele>-2.2659912109375</ele>
        <time>2015-07-22T06:10:54Z</time>
      </trkpt>
      <trkpt lat="43.08226" lon="5.99497">
        <ele>-2.2659912109375</ele>
        <time>2015-07-22T06:11:24Z</time>
      </trkpt>
      <trkpt lat="43.08215" lon="5.99459">
        <ele>-2.2659912109375</ele>
        <time>2015-07-22T06:11:39Z</time>
      </trkpt>
      <trkpt lat="43.08183" lon="5.99352">
        <ele>-2.2659912109375</ele>
        <time>2015-07-22T06:12:14Z</time>
      </trkpt>
      <trkpt lat="43.08148" lon="5.99261">
        <ele>-2.2659912109375</ele>
        <time>2015-07-22T06:12:44Z</time>
      </trkpt>
      <trkpt lat="43.08115" lon="5.99168">
        <ele>-2.7467041015625</ele>
        <time>2015-07-22T06:13:14Z</time>
      </trkpt>
      <trkpt lat="43.081" lon="5.99108">
        <ele>-2.2659912109375</ele>
        <time>2015-07-22T06:13:34Z</time>
      </trkpt>
      <trkpt lat="43.08074" lon="5.99012">
        <ele>-2.2659912109375</ele>
        <time>2015-07-22T06:14:04Z</time>
      </trkpt>
      <trkpt lat="43.08047" lon="5.98914">
        <ele>-1.7852783203125</ele>
        <time>2015-07-22T06:14:34Z</time>
      </trkpt>
      <trkpt lat="43.08028" lon="5.98844">
        <ele>-2.2659912109375</ele>
        <time>2015-07-22T06:14:59Z</time>
      </trkpt>
      <trkpt lat="43.07995" lon="5.98739">
        <ele>-1.7852783203125</ele>
        <time>2015-07-22T06:15:34Z</time>
      </trkpt>
      <trkpt lat="43.07966" lon="5.98658">
        <ele>-1.7852783203125</ele>
        <time>2015-07-22T06:16:01Z</time>
      </trkpt>
      <trkpt lat="43.07955" lon="5.9862">
        <ele>-2.2659912109375</ele>
        <time>2015-07-22T06:16:14Z</time>
      </trkpt>
      <trkpt lat="43.07927" lon="5.98525">
        <ele>-2.2659912109375</ele>
        <time>2015-07-22T06:16:44Z</time>
      </trkpt>
      <trkpt lat="43.07906" lon="5.9845">
        <ele>-2.7467041015625</ele>
        <time>2015-07-22T06:17:09Z</time>
      </trkpt>
      <trkpt lat="43.07882" lon="5.98384">
        <ele>-3.227294921875</ele>
        <time>2015-07-22T06:17:34Z</time>
      </trkpt>
      <trkpt lat="43.07869" lon="5.9834">
        <ele>-2.7467041015625</ele>
        <time>2015-07-22T06:17:47Z</time>
      </trkpt>
      <trkpt lat="43.07856" lon="5.98299">
        <ele>-2.2659912109375</ele>
        <time>2015-07-22T06:18:02Z</time>
      </trkpt>
      <trkpt lat="43.0784" lon="5.98242">
        <ele>-2.2659912109375</ele>
        <time>2015-07-22T06:18:20Z</time>
      </trkpt>
      <trkpt lat="43.07821" lon="5.98183">
        <ele>-2.7467041015625</ele>
        <time>2015-07-22T06:18:39Z</time>
      </trkpt>
      <trkpt lat="43.07798" lon="5.98113">
        <ele>-2.2659912109375</ele>
        <time>2015-07-22T06:19:04Z</time>
      </trkpt>
      <trkpt lat="43.07783" lon="5.98059">
        <ele>-2.7467041015625</ele>
        <time>2015-07-22T06:19:24Z</time>
      </trkpt>
      <trkpt lat="43.07779" lon="5.9804">
        <ele>-3.227294921875</ele>
        <time>2015-07-22T06:19:29Z</time>
      </trkpt>
      <trkpt lat="43.07754" lon="5.97962">
        <ele>-2.7467041015625</ele>
        <time>2015-07-22T06:19:54Z</time>
      </trkpt>
      <trkpt lat="43.07726" lon="5.9789">
        <ele>-2.7467041015625</ele>
        <time>2015-07-22T06:20:19Z</time>
      </trkpt>
      <trkpt lat="43.07705" lon="5.97821">
        <ele>-3.227294921875</ele>
        <time>2015-07-22T06:20:39Z</time>
      </trkpt>
      <trkpt lat="43.07684" lon="5.97774">
        <ele>-2.7467041015625</ele>
        <time>2015-07-22T06:20:59Z</time>
      </trkpt>
      <trkpt lat="43.07677" lon="5.97762">
        <ele>-3.227294921875</ele>
        <time>2015-07-22T06:21:04Z</time>
      </trkpt>
      <trkpt lat="43.07643" lon="5.97672">
        <ele>-2.7467041015625</ele>
        <time>2015-07-22T06:21:34Z</time>
      </trkpt>
      <trkpt lat="43.07605" lon="5.97575">
        <ele>-2.2659912109375</ele>
        <time>2015-07-22T06:22:09Z</time>
      </trkpt>
      <trkpt lat="43.07567" lon="5.97464">
        <ele>-2.2659912109375</ele>
        <time>2015-07-22T06:22:44Z</time>
      </trkpt>
      <trkpt lat="43.07538" lon="5.97391">
        <ele>-2.7467041015625</ele>
        <time>2015-07-22T06:23:09Z</time>
      </trkpt>
      <trkpt lat="43.07509" lon="5.97335">
        <ele>-2.2659912109375</ele>
        <time>2015-07-22T06:23:29Z</time>
      </trkpt>
      <trkpt lat="43.07479" lon="5.97261">
        <ele>-2.2659912109375</ele>
        <time>2015-07-22T06:23:54Z</time>
      </trkpt>
      <trkpt lat="43.07459" lon="5.97182">
        <ele>-2.2659912109375</ele>
        <time>2015-07-22T06:24:19Z</time>
      </trkpt>
      <trkpt lat="43.07438" lon="5.97123">
        <ele>-2.2659912109375</ele>
        <time>2015-07-22T06:24:44Z</time>
      </trkpt>
      <trkpt lat="43.07395" lon="5.97014">
        <ele>-2.2659912109375</ele>
        <time>2015-07-22T06:25:19Z</time>
      </trkpt>
      <trkpt lat="43.07354" lon="5.96905">
        <ele>-2.2659912109375</ele>
        <time>2015-07-22T06:25:54Z</time>
      </trkpt>
      <trkpt lat="43.0733" lon="5.96828">
        <ele>-2.7467041015625</ele>
        <time>2015-07-22T06:26:24Z</time>
      </trkpt>
      <trkpt lat="43.07303" lon="5.96754">
        <ele>-2.7467041015625</ele>
        <time>2015-07-22T06:26:49Z</time>
      </trkpt>
      <trkpt lat="43.07269" lon="5.96643">
        <ele>-2.2659912109375</ele>
        <time>2015-07-22T06:27:24Z</time>
      </trkpt>
      <trkpt lat="43.07249" lon="5.96584">
        <ele>-2.2659912109375</ele>
        <time>2015-07-22T06:27:42Z</time>
      </trkpt>
      <trkpt lat="43.07232" lon="5.96534">
        <ele>-2.7467041015625</ele>
        <time>2015-07-22T06:27:58Z</time>
      </trkpt>
      <trkpt lat="43.07222" lon="5.96495">
        <ele>-2.2659912109375</ele>
        <time>2015-07-22T06:28:13Z</time>
      </trkpt>
      <trkpt lat="43.07204" lon="5.96442">
        <ele>-2.2659912109375</ele>
        <time>2015-07-22T06:28:30Z</time>
      </trkpt>
      <trkpt lat="43.07182" lon="5.96368">
        <ele>-1.7852783203125</ele>
        <time>2015-07-22T06:28:54Z</time>
      </trkpt>
      <trkpt lat="43.07177" lon="5.96354">
        <ele>-2.7467041015625</ele>
        <time>2015-07-22T06:28:59Z</time>
      </trkpt>
      <trkpt lat="43.07157" lon="5.96282">
        <ele>-2.2659912109375</ele>
        <time>2015-07-22T06:29:24Z</time>
      </trkpt>
      <trkpt lat="43.07142" lon="5.96236">
        <ele>-2.7467041015625</ele>
        <time>2015-07-22T06:29:39Z</time>
      </trkpt>
      <trkpt lat="43.07101" lon="5.96113">
        <ele>-2.2659912109375</ele>
        <time>2015-07-22T06:30:19Z</time>
      </trkpt>
      <trkpt lat="43.07073" lon="5.96016">
        <ele>-2.2659912109375</ele>
        <time>2015-07-22T06:30:49Z</time>
      </trkpt>
      <trkpt lat="43.07044" lon="5.95937">
        <ele>-2.2659912109375</ele>
        <time>2015-07-22T06:31:14Z</time>
      </trkpt>
      <trkpt lat="43.07008" lon="5.95834">
        <ele>-2.2659912109375</ele>
        <time>2015-07-22T06:31:49Z</time>
      </trkpt>
      <trkpt lat="43.06987" lon="5.95759">
        <ele>-2.7467041015625</ele>
        <time>2015-07-22T06:32:14Z</time>
      </trkpt>
      <trkpt lat="43.06963" lon="5.95683">
        <ele>-2.2659912109375</ele>
        <time>2015-07-22T06:32:39Z</time>
      </trkpt>
      <trkpt lat="43.06936" lon="5.95608">
        <ele>-2.7467041015625</ele>
        <time>2015-07-22T06:33:04Z</time>
      </trkpt>
      <trkpt lat="43.06917" lon="5.95571">
        <ele>-2.7467041015625</ele>
        <time>2015-07-22T06:33:24Z</time>
      </trkpt>
      <trkpt lat="43.06905" lon="5.95528">
        <ele>-2.2659912109375</ele>
        <time>2015-07-22T06:33:59Z</time>
      </trkpt>
      <trkpt lat="43.069" lon="5.95516">
        <ele>-2.7467041015625</ele>
        <time>2015-07-22T06:34:19Z</time>
      </trkpt>
      <trkpt lat="43.06887" lon="5.95495">
        <ele>-2.7467041015625</ele>
        <time>2015-07-22T06:34:39Z</time>
      </trkpt>
      <trkpt lat="43.06868" lon="5.95432">
        <ele>-3.7078857421875</ele>
        <time>2015-07-22T06:35:04Z</time>
      </trkpt>
      <trkpt lat="43.06869" lon="5.95421">
        <ele>-2.2659912109375</ele>
        <time>2015-07-22T06:35:09Z</time>
      </trkpt>
      <trkpt lat="43.06838" lon="5.95353">
        <ele>-3.227294921875</ele>
        <time>2015-07-22T06:35:34Z</time>
      </trkpt>
      <trkpt lat="43.06826" lon="5.95324">
        <ele>-2.2659912109375</ele>
        <time>2015-07-22T06:35:44Z</time>
      </trkpt>
      <trkpt lat="43.06786" lon="5.95213">
        <ele>-2.2659912109375</ele>
        <time>2015-07-22T06:36:19Z</time>
      </trkpt>
      <trkpt lat="43.06756" lon="5.95131">
        <ele>-1.7852783203125</ele>
        <time>2015-07-22T06:36:44Z</time>
      </trkpt>
      <trkpt lat="43.06741" lon="5.95068">
        <ele>-2.2659912109375</ele>
        <time>2015-07-22T06:37:04Z</time>
      </trkpt>
      <trkpt lat="43.06716" lon="5.94966">
        <ele>-1.7852783203125</ele>
        <time>2015-07-22T06:37:34Z</time>
      </trkpt>
      <trkpt lat="43.06696" lon="5.94916">
        <ele>-1.7852783203125</ele>
        <time>2015-07-22T06:37:51Z</time>
      </trkpt>
      <trkpt lat="43.06678" lon="5.94859">
        <ele>-2.2659912109375</ele>
        <time>2015-07-22T06:38:09Z</time>
      </trkpt>
      <trkpt lat="43.06661" lon="5.94806">
        <ele>-2.2659912109375</ele>
        <time>2015-07-22T06:38:26Z</time>
      </trkpt>
      <trkpt lat="43.06648" lon="5.94745">
        <ele>-1.7852783203125</ele>
        <time>2015-07-22T06:38:44Z</time>
      </trkpt>
      <trkpt lat="43.06639" lon="5.94697">
        <ele>-1.7852783203125</ele>
        <time>2015-07-22T06:38:59Z</time>
      </trkpt>
      <trkpt lat="43.06622" lon="5.94595">
        <ele>-1.7852783203125</ele>
        <time>2015-07-22T06:39:29Z</time>
      </trkpt>
      <trkpt lat="43.06618" lon="5.94579">
        <ele>-2.2659912109375</ele>
        <time>2015-07-22T06:39:34Z</time>
      </trkpt>
      <trkpt lat="43.06616" lon="5.94548">
        <ele>-1.3046875</ele>
        <time>2015-07-22T06:39:44Z</time>
      </trkpt>
      <trkpt lat="43.06609" lon="5.94486">
        <ele>-2.2659912109375</ele>
        <time>2015-07-22T06:40:04Z</time>
      </trkpt>
      <trkpt lat="43.06608" lon="5.94464">
        <ele>-2.2659912109375</ele>
        <time>2015-07-22T06:40:14Z</time>
      </trkpt>
      <trkpt lat="43.06603" lon="5.94395">
        <ele>-2.2659912109375</ele>
        <time>2015-07-22T06:40:39Z</time>
      </trkpt>
      <trkpt lat="43.06608" lon="5.94361">
        <ele>-2.2659912109375</ele>
        <time>2015-07-22T06:40:59Z</time>
      </trkpt>
      <trkpt lat="43.06617" lon="5.94348">
        <ele>-2.7467041015625</ele>
        <time>2015-07-22T06:41:19Z</time>
      </trkpt>
      <trkpt lat="43.06605" lon="5.94331">
        <ele>-3.227294921875</ele>
        <time>2015-07-22T06:41:34Z</time>
      </trkpt>
      <trkpt lat="43.06606" lon="5.94314">
        <ele>-2.7467041015625</ele>
        <time>2015-07-22T06:41:52Z</time>
      </trkpt>
      <trkpt lat="43.0661" lon="5.94291">
        <ele>-2.7467041015625</ele>
        <time>2015-07-22T06:42:17Z</time>
      </trkpt>
      <trkpt lat="43.06613" lon="5.94281">
        <ele>-3.227294921875</ele>
        <time>2015-07-22T06:42:43Z</time>
      </trkpt>
      <trkpt lat="43.06618" lon="5.94265">
        <ele>-2.7467041015625</ele>
        <time>2015-07-22T06:42:57Z</time>
      </trkpt>
      <trkpt lat="43.06614" lon="5.94235">
        <ele>-1.7852783203125</ele>
        <time>2015-07-22T06:43:12Z</time>
      </trkpt>
      <trkpt lat="43.06615" lon="5.94147">
        <ele>-1.7852783203125</ele>
        <time>2015-07-22T06:43:42Z</time>
      </trkpt>
      <trkpt lat="43.06611" lon="5.94083">
        <ele>-1.7852783203125</ele>
        <time>2015-07-22T06:44:02Z</time>
      </trkpt>
      <trkpt lat="43.06615" lon="5.94018">
        <ele>-1.7852783203125</ele>
        <time>2015-07-22T06:44:22Z</time>
      </trkpt>
      <trkpt lat="43.06615" lon="5.93945">
        <ele>-1.7852783203125</ele>
        <time>2015-07-22T06:44:47Z</time>
      </trkpt>
      <trkpt lat="43.06618" lon="5.93914">
        <ele>-1.7852783203125</ele>
        <time>2015-07-22T06:44:57Z</time>
      </trkpt>
      <trkpt lat="43.06615" lon="5.93867">
        <ele>-2.2659912109375</ele>
        <time>2015-07-22T06:45:12Z</time>
      </trkpt>
      <trkpt lat="43.06611" lon="5.93758">
        <ele>-1.7852783203125</ele>
        <time>2015-07-22T06:45:47Z</time>
      </trkpt>
      <trkpt lat="43.06619" lon="5.93676">
        <ele>-2.2659912109375</ele>
        <time>2015-07-22T06:46:17Z</time>
      </trkpt>
      <trkpt lat="43.06613" lon="5.93587">
        <ele>-2.2659912109375</ele>
        <time>2015-07-22T06:46:42Z</time>
      </trkpt>
      <trkpt lat="43.06619" lon="5.93518">
        <ele>-1.7852783203125</ele>
        <time>2015-07-22T06:47:07Z</time>
      </trkpt>
      <trkpt lat="43.06618" lon="5.93442">
        <ele>-1.7852783203125</ele>
        <time>2015-07-22T06:47:32Z</time>
      </trkpt>
      <trkpt lat="43.06617" lon="5.93392">
        <ele>-1.3046875</ele>
        <time>2015-07-22T06:47:47Z</time>
      </trkpt>
      <trkpt lat="43.06618" lon="5.93341">
        <ele>-1.7852783203125</ele>
        <time>2015-07-22T06:48:05Z</time>
      </trkpt>
      <trkpt lat="43.06618" lon="5.93297">
        <ele>-1.3046875</ele>
        <time>2015-07-22T06:48:20Z</time>
      </trkpt>
      <trkpt lat="43.06619" lon="5.93256">
        <ele>-1.7852783203125</ele>
        <time>2015-07-22T06:48:43Z</time>
      </trkpt>
      <trkpt lat="43.06613" lon="5.93194">
        <ele>-1.7852783203125</ele>
        <time>2015-07-22T06:49:08Z</time>
      </trkpt>
      <trkpt lat="43.06609" lon="5.9312">
        <ele>-1.3046875</ele>
        <time>2015-07-22T06:49:33Z</time>
      </trkpt>
      <trkpt lat="43.06604" lon="5.93042">
        <ele>-1.3046875</ele>
        <time>2015-07-22T06:50:03Z</time>
      </trkpt>
      <trkpt lat="43.06598" lon="5.93012">
        <ele>-1.3046875</ele>
        <time>2015-07-22T06:50:13Z</time>
      </trkpt>
      <trkpt lat="43.06594" lon="5.92947">
        <ele>-0.8240966796875</ele>
        <time>2015-07-22T06:50:38Z</time>
      </trkpt>
      <trkpt lat="43.06589" lon="5.92894">
        <ele>-0.8240966796875</ele>
        <time>2015-07-22T06:50:53Z</time>
      </trkpt>
      <trkpt lat="43.0659" lon="5.92815">
        <ele>-0.3433837890625</ele>
        <time>2015-07-22T06:51:23Z</time>
      </trkpt>
      <trkpt lat="43.06593" lon="5.92757">
        <ele>-0.8240966796875</ele>
        <time>2015-07-22T06:51:48Z</time>
      </trkpt>
      <trkpt lat="43.0659" lon="5.92679">
        <ele>-0.3433837890625</ele>
        <time>2015-07-22T06:52:13Z</time>
      </trkpt>
      <trkpt lat="43.06589" lon="5.92622">
        <ele>-0.3433837890625</ele>
        <time>2015-07-22T06:52:33Z</time>
      </trkpt>
      <trkpt lat="43.06589" lon="5.92582">
        <ele>0.137451171875</ele>
        <time>2015-07-22T06:52:48Z</time>
      </trkpt>
      <trkpt lat="43.06587" lon="5.92505">
        <ele>-0.3433837890625</ele>
        <time>2015-07-22T06:53:13Z</time>
      </trkpt>
      <trkpt lat="43.06585" lon="5.92419">
        <ele>-0.8240966796875</ele>
        <time>2015-07-22T06:53:43Z</time>
      </trkpt>
      <trkpt lat="43.06575" lon="5.9234">
        <ele>-0.3433837890625</ele>
        <time>2015-07-22T06:54:08Z</time>
      </trkpt>
      <trkpt lat="43.06576" lon="5.92258">
        <ele>0.137451171875</ele>
        <time>2015-07-22T06:54:38Z</time>
      </trkpt>
      <trkpt lat="43.06574" lon="5.9221">
        <ele>-0.8240966796875</ele>
        <time>2015-07-22T06:54:58Z</time>
      </trkpt>
      <trkpt lat="43.06561" lon="5.92116">
        <ele>-0.3433837890625</ele>
        <time>2015-07-22T06:55:28Z</time>
      </trkpt>
      <trkpt lat="43.06563" lon="5.92045">
        <ele>-0.3433837890625</ele>
        <time>2015-07-22T06:55:53Z</time>
      </trkpt>
      <trkpt lat="43.06562" lon="5.92038">
        <ele>-0.8240966796875</ele>
        <time>2015-07-22T06:55:58Z</time>
      </trkpt>
      <trkpt lat="43.06566" lon="5.91962">
        <ele>-0.8240966796875</ele>
        <time>2015-07-22T06:56:23Z</time>
      </trkpt>
      <trkpt lat="43.06573" lon="5.91873">
        <ele>-0.8240966796875</ele>
        <time>2015-07-22T06:56:53Z</time>
      </trkpt>
      <trkpt lat="43.06574" lon="5.91823">
        <ele>-0.8240966796875</ele>
        <time>2015-07-22T06:57:13Z</time>
      </trkpt>
      <trkpt lat="43.0658" lon="5.91745">
        <ele>-0.3433837890625</ele>
        <time>2015-07-22T06:57:41Z</time>
      </trkpt>
      <trkpt lat="43.06578" lon="5.91698">
        <ele>-0.3433837890625</ele>
        <time>2015-07-22T06:57:56Z</time>
      </trkpt>
      <trkpt lat="43.06577" lon="5.91658">
        <ele>-0.3433837890625</ele>
        <time>2015-07-22T06:58:11Z</time>
      </trkpt>
      <trkpt lat="43.06578" lon="5.91617">
        <ele>-0.3433837890625</ele>
        <time>2015-07-22T06:58:26Z</time>
      </trkpt>
      <trkpt lat="43.06583" lon="5.91567">
        <ele>-0.3433837890625</ele>
        <time>2015-07-22T06:58:43Z</time>
      </trkpt>
      <trkpt lat="43.06583" lon="5.91489">
        <ele>-0.3433837890625</ele>
        <time>2015-07-22T06:59:13Z</time>
      </trkpt>
      <trkpt lat="43.06579" lon="5.91416">
        <ele>-0.3433837890625</ele>
        <time>2015-07-22T06:59:38Z</time>
      </trkpt>
      <trkpt lat="43.06579" lon="5.91334">
        <ele>-0.3433837890625</ele>
        <time>2015-07-22T07:00:08Z</time>
      </trkpt>
      <trkpt lat="43.06574" lon="5.91281">
        <ele>-0.3433837890625</ele>
        <time>2015-07-22T07:00:28Z</time>
      </trkpt>
      <trkpt lat="43.06564" lon="5.91227">
        <ele>-0.8240966796875</ele>
        <time>2015-07-22T07:00:48Z</time>
      </trkpt>
      <trkpt lat="43.06558" lon="5.91146">
        <ele>-1.3046875</ele>
        <time>2015-07-22T07:01:13Z</time>
      </trkpt>
      <trkpt lat="43.06596" lon="5.91053">
        <ele>-1.3046875</ele>
        <time>2015-07-22T07:01:53Z</time>
      </trkpt>
      <trkpt lat="43.06634" lon="5.91005">
        <ele>-0.8240966796875</ele>
        <time>2015-07-22T07:02:13Z</time>
      </trkpt>
      <trkpt lat="43.06654" lon="5.90989">
        <ele>-0.8240966796875</ele>
        <time>2015-07-22T07:02:23Z</time>
      </trkpt>
      <trkpt lat="43.06696" lon="5.90949">
        <ele>-0.8240966796875</ele>
        <time>2015-07-22T07:02:48Z</time>
      </trkpt>
      <trkpt lat="43.06737" lon="5.90893">
        <ele>-1.3046875</ele>
        <time>2015-07-22T07:03:13Z</time>
      </trkpt>
      <trkpt lat="43.06782" lon="5.90828">
        <ele>-1.3046875</ele>
        <time>2015-07-22T07:03:43Z</time>
      </trkpt>
      <trkpt lat="43.06803" lon="5.90801">
        <ele>-1.3046875</ele>
        <time>2015-07-22T07:03:58Z</time>
      </trkpt>
      <trkpt lat="43.06823" lon="5.90768">
        <ele>-2.2659912109375</ele>
        <time>2015-07-22T07:04:13Z</time>
      </trkpt>
      <trkpt lat="43.06856" lon="5.90723">
        <ele>-1.3046875</ele>
        <time>2015-07-22T07:04:38Z</time>
      </trkpt>
      <trkpt lat="43.06908" lon="5.90637">
        <ele>-0.8240966796875</ele>
        <time>2015-07-22T07:05:13Z</time>
      </trkpt>
      <trkpt lat="43.06933" lon="5.90586">
        <ele>-0.3433837890625</ele>
        <time>2015-07-22T07:05:33Z</time>
      </trkpt>
      <trkpt lat="43.06968" lon="5.90536">
        <ele>-0.8240966796875</ele>
        <time>2015-07-22T07:05:58Z</time>
      </trkpt>
      <trkpt lat="43.07" lon="5.90512">
        <ele>-0.8240966796875</ele>
        <time>2015-07-22T07:06:23Z</time>
      </trkpt>
      <trkpt lat="43.07014" lon="5.90505">
        <ele>0.137451171875</ele>
        <time>2015-07-22T07:06:43Z</time>
      </trkpt>
      <trkpt lat="43.07016" lon="5.90501">
        <ele>-0.8240966796875</ele>
        <time>2015-07-22T07:07:08Z</time>
      </trkpt>
      <trkpt lat="43.07016" lon="5.90489">
        <ele>-1.3046875</ele>
        <time>2015-07-22T07:07:26Z</time>
      </trkpt>
      <trkpt lat="43.07017" lon="5.90486">
        <ele>0.137451171875</ele>
        <time>2015-07-22T07:07:47Z</time>
      </trkpt>
      <trkpt lat="43.07018" lon="5.90483">
        <ele>-0.3433837890625</ele>
        <time>2015-07-22T07:08:09Z</time>
      </trkpt>
      <trkpt lat="43.07018" lon="5.9048">
        <ele>-0.3433837890625</ele>
        <time>2015-07-22T07:08:31Z</time>
      </trkpt>
      <trkpt lat="43.07013" lon="5.90453">
        <ele>-0.8240966796875</ele>
        <time>2015-07-22T07:08:51Z</time>
      </trkpt>
      <trkpt lat="43.07" lon="5.90408">
        <ele>-0.8240966796875</ele>
        <time>2015-07-22T07:09:16Z</time>
      </trkpt>
      <trkpt lat="43.06962" lon="5.90338">
        <ele>-0.8240966796875</ele>
        <time>2015-07-22T07:09:46Z</time>
      </trkpt>
      <trkpt lat="43.06924" lon="5.90271">
        <ele>-1.3046875</ele>
        <time>2015-07-22T07:10:11Z</time>
      </trkpt>
      <trkpt lat="43.06883" lon="5.90199">
        <ele>-1.3046875</ele>
        <time>2015-07-22T07:10:36Z</time>
      </trkpt>
      <trkpt lat="43.06842" lon="5.90165">
        <ele>-1.7852783203125</ele>
        <time>2015-07-22T07:10:56Z</time>
      </trkpt>
      <trkpt lat="43.06808" lon="5.90136">
        <ele>-1.3046875</ele>
        <time>2015-07-22T07:11:11Z</time>
      </trkpt>
      <trkpt lat="43.06785" lon="5.90111">
        <ele>-1.3046875</ele>
        <time>2015-07-22T07:11:26Z</time>
      </trkpt>
      <trkpt lat="43.06749" lon="5.90069">
        <ele>-1.7852783203125</ele>
        <time>2015-07-22T07:11:51Z</time>
      </trkpt>
      <trkpt lat="43.0674" lon="5.90054">
        <ele>-1.7852783203125</ele>
        <time>2015-07-22T07:11:56Z</time>
      </trkpt>
      <trkpt lat="43.06702" lon="5.8999">
        <ele>-0.8240966796875</ele>
        <time>2015-07-22T07:12:26Z</time>
      </trkpt>
      <trkpt lat="43.06665" lon="5.89935">
        <ele>-1.3046875</ele>
        <time>2015-07-22T07:12:51Z</time>
      </trkpt>
      <trkpt lat="43.0665" lon="5.89879">
        <ele>-0.8240966796875</ele>
        <time>2015-07-22T07:13:11Z</time>
      </trkpt>
      <trkpt lat="43.06639" lon="5.89848">
        <ele>-0.8240966796875</ele>
        <time>2015-07-22T07:13:21Z</time>
      </trkpt>
      <trkpt lat="43.06608" lon="5.89766">
        <ele>-0.3433837890625</ele>
        <time>2015-07-22T07:13:51Z</time>
      </trkpt>
      <trkpt lat="43.06572" lon="5.89715">
        <ele>-0.8240966796875</ele>
        <time>2015-07-22T07:14:21Z</time>
      </trkpt>
      <trkpt lat="43.06537" lon="5.89642">
        <ele>-0.8240966796875</ele>
        <time>2015-07-22T07:14:51Z</time>
      </trkpt>
      <trkpt lat="43.06501" lon="5.89589">
        <ele>-0.3433837890625</ele>
        <time>2015-07-22T07:15:16Z</time>
      </trkpt>
      <trkpt lat="43.06462" lon="5.89513">
        <ele>-0.8240966796875</ele>
        <time>2015-07-22T07:15:41Z</time>
      </trkpt>
      <trkpt lat="43.06436" lon="5.89459">
        <ele>-0.8240966796875</ele>
        <time>2015-07-22T07:16:06Z</time>
      </trkpt>
      <trkpt lat="43.06402" lon="5.89395">
        <ele>-0.8240966796875</ele>
        <time>2015-07-22T07:16:26Z</time>
      </trkpt>
      <trkpt lat="43.06372" lon="5.8934">
        <ele>-0.8240966796875</ele>
        <time>2015-07-22T07:16:46Z</time>
      </trkpt>
      <trkpt lat="43.06342" lon="5.89286">
        <ele>-0.3433837890625</ele>
        <time>2015-07-22T07:17:06Z</time>
      </trkpt>
      <trkpt lat="43.06313" lon="5.89231">
        <ele>-0.3433837890625</ele>
        <time>2015-07-22T07:17:31Z</time>
      </trkpt>
      <trkpt lat="43.06294" lon="5.89185">
        <ele>-0.3433837890625</ele>
        <time>2015-07-22T07:17:46Z</time>
      </trkpt>
      <trkpt lat="43.06272" lon="5.89151">
        <ele>0.137451171875</ele>
        <time>2015-07-22T07:18:00Z</time>
      </trkpt>
      <trkpt lat="43.0625" lon="5.89114">
        <ele>-0.3433837890625</ele>
        <time>2015-07-22T07:18:15Z</time>
      </trkpt>
      <trkpt lat="43.06226" lon="5.89071">
        <ele>0.137451171875</ele>
        <time>2015-07-22T07:18:32Z</time>
      </trkpt>
      <trkpt lat="43.06192" lon="5.89017">
        <ele>0.137451171875</ele>
        <time>2015-07-22T07:18:56Z</time>
      </trkpt>
      <trkpt lat="43.06157" lon="5.88964">
        <ele>0.137451171875</ele>
        <time>2015-07-22T07:19:16Z</time>
      </trkpt>
      <trkpt lat="43.06095" lon="5.88889">
        <ele>0.137451171875</ele>
        <time>2015-07-22T07:19:51Z</time>
      </trkpt>
      <trkpt lat="43.06042" lon="5.88821">
        <ele>0.6180419921875</ele>
        <time>2015-07-22T07:20:21Z</time>
      </trkpt>
      <trkpt lat="43.0599" lon="5.88752">
        <ele>0.137451171875</ele>
        <time>2015-07-22T07:20:51Z</time>
      </trkpt>
      <trkpt lat="43.05953" lon="5.88688">
        <ele>-0.3433837890625</ele>
        <time>2015-07-22T07:21:16Z</time>
      </trkpt>
      <trkpt lat="43.0591" lon="5.88616">
        <ele>0.137451171875</ele>
        <time>2015-07-22T07:21:46Z</time>
      </trkpt>
      <trkpt lat="43.05869" lon="5.88557">
        <ele>-0.3433837890625</ele>
        <time>2015-07-22T07:22:11Z</time>
      </trkpt>
      <trkpt lat="43.05831" lon="5.88488">
        <ele>0.137451171875</ele>
        <time>2015-07-22T07:22:36Z</time>
      </trkpt>
      <trkpt lat="43.0579" lon="5.88414">
        <ele>0.137451171875</ele>
        <time>2015-07-22T07:23:01Z</time>
      </trkpt>
      <trkpt lat="43.0576" lon="5.88367">
        <ele>0.137451171875</ele>
        <time>2015-07-22T07:23:21Z</time>
      </trkpt>
      <trkpt lat="43.05742" lon="5.8834">
        <ele>0.137451171875</ele>
        <time>2015-07-22T07:23:31Z</time>
      </trkpt>
      <trkpt lat="43.05711" lon="5.88281">
        <ele>1.0986328125</ele>
        <time>2015-07-22T07:23:56Z</time>
      </trkpt>
      <trkpt lat="43.05698" lon="5.88259">
        <ele>0.6180419921875</ele>
        <time>2015-07-22T07:24:06Z</time>
      </trkpt>
      <trkpt lat="43.05653" lon="5.8818">
        <ele>0.6180419921875</ele>
        <time>2015-07-22T07:24:36Z</time>
      </trkpt>
      <trkpt lat="43.05626" lon="5.88126">
        <ele>0.6180419921875</ele>
        <time>2015-07-22T07:24:56Z</time>
      </trkpt>
      <trkpt lat="43.05592" lon="5.88066">
        <ele>1.0986328125</ele>
        <time>2015-07-22T07:25:16Z</time>
      </trkpt>
      <trkpt lat="43.05544" lon="5.87994">
        <ele>1.0986328125</ele>
        <time>2015-07-22T07:25:46Z</time>
      </trkpt>
      <trkpt lat="43.05488" lon="5.87918">
        <ele>1.0986328125</ele>
        <time>2015-07-22T07:26:21Z</time>
      </trkpt>
      <trkpt lat="43.05464" lon="5.87868">
        <ele>1.0986328125</ele>
        <time>2015-07-22T07:26:41Z</time>
      </trkpt>
      <trkpt lat="43.05427" lon="5.87805">
        <ele>0.6180419921875</ele>
        <time>2015-07-22T07:27:06Z</time>
      </trkpt>
      <trkpt lat="43.0539" lon="5.87747">
        <ele>1.0986328125</ele>
        <time>2015-07-22T07:27:31Z</time>
      </trkpt>
      <trkpt lat="43.05366" lon="5.87699">
        <ele>1.579345703125</ele>
        <time>2015-07-22T07:27:48Z</time>
      </trkpt>
      <trkpt lat="43.05347" lon="5.87651">
        <ele>1.0986328125</ele>
        <time>2015-07-22T07:28:06Z</time>
      </trkpt>
      <trkpt lat="43.0533" lon="5.87602">
        <ele>0.6180419921875</ele>
        <time>2015-07-22T07:28:22Z</time>
      </trkpt>
      <trkpt lat="43.05303" lon="5.87547">
        <ele>1.0986328125</ele>
        <time>2015-07-22T07:28:42Z</time>
      </trkpt>
      <trkpt lat="43.05256" lon="5.87489">
        <ele>0.6180419921875</ele>
        <time>2015-07-22T07:29:07Z</time>
      </trkpt>
      <trkpt lat="43.05215" lon="5.87437">
        <ele>1.579345703125</ele>
        <time>2015-07-22T07:29:32Z</time>
      </trkpt>
      <trkpt lat="43.05158" lon="5.87374">
        <ele>1.0986328125</ele>
        <time>2015-07-22T07:30:02Z</time>
      </trkpt>
      <trkpt lat="43.05099" lon="5.87294">
        <ele>1.579345703125</ele>
        <time>2015-07-22T07:30:32Z</time>
      </trkpt>
      <trkpt lat="43.05048" lon="5.87209">
        <ele>1.579345703125</ele>
        <time>2015-07-22T07:31:02Z</time>
      </trkpt>
      <trkpt lat="43.05033" lon="5.87181">
        <ele>1.579345703125</ele>
        <time>2015-07-22T07:31:12Z</time>
      </trkpt>
      <trkpt lat="43.05004" lon="5.87132">
        <ele>2.06005859375</ele>
        <time>2015-07-22T07:31:32Z</time>
      </trkpt>
      <trkpt lat="43.0495" lon="5.87046">
        <ele>2.06005859375</ele>
        <time>2015-07-22T07:32:07Z</time>
      </trkpt>
      <trkpt lat="43.04911" lon="5.86975">
        <ele>2.06005859375</ele>
        <time>2015-07-22T07:32:32Z</time>
      </trkpt>
      <trkpt lat="43.04882" lon="5.86896">
        <ele>2.5406494140625</ele>
        <time>2015-07-22T07:33:02Z</time>
      </trkpt>
      <trkpt lat="43.04863" lon="5.86854">
        <ele>1.579345703125</ele>
        <time>2015-07-22T07:33:17Z</time>
      </trkpt>
      <trkpt lat="43.0487" lon="5.86807">
        <ele>2.06005859375</ele>
        <time>2015-07-22T07:33:37Z</time>
      </trkpt>
      <trkpt lat="43.04866" lon="5.86795">
        <ele>2.06005859375</ele>
        <time>2015-07-22T07:33:42Z</time>
      </trkpt>
      <trkpt lat="43.04837" lon="5.86773">
        <ele>2.06005859375</ele>
        <time>2015-07-22T07:34:05Z</time>
      </trkpt>
      <trkpt lat="43.04822" lon="5.86756">
        <ele>2.06005859375</ele>
        <time>2015-07-22T07:34:30Z</time>
      </trkpt>
      <trkpt lat="43.04816" lon="5.86751">
        <ele>2.5406494140625</ele>
        <time>2015-07-22T07:34:50Z</time>
      </trkpt>
      <trkpt lat="43.04817" lon="5.86747">
        <ele>2.06005859375</ele>
        <time>2015-07-22T07:35:17Z</time>
      </trkpt>
      <trkpt lat="43.04811" lon="5.86734">
        <ele>2.06005859375</ele>
        <time>2015-07-22T07:35:47Z</time>
      </trkpt>
      <trkpt lat="43.04813" lon="5.86729">
        <ele>2.5406494140625</ele>
        <time>2015-07-22T07:36:12Z</time>
      </trkpt>
      <trkpt lat="43.04806" lon="5.86726">
        <ele>2.5406494140625</ele>
        <time>2015-07-22T07:36:37Z</time>
      </trkpt>
      <trkpt lat="43.04795" lon="5.86717">
        <ele>2.06005859375</ele>
        <time>2015-07-22T07:36:57Z</time>
      </trkpt>
      <trkpt lat="43.04793" lon="5.86703">
        <ele>3.021240234375</ele>
        <time>2015-07-22T07:37:17Z</time>
      </trkpt>
      <trkpt lat="43.04783" lon="5.86652">
        <ele>2.06005859375</ele>
        <time>2015-07-22T07:37:40Z</time>
      </trkpt>
      <trkpt lat="43.04769" lon="5.86595">
        <ele>2.5406494140625</ele>
        <time>2015-07-22T07:38:02Z</time>
      </trkpt>
      <trkpt lat="43.04748" lon="5.86543">
        <ele>2.06005859375</ele>
        <time>2015-07-22T07:38:22Z</time>
      </trkpt>
      <trkpt lat="43.04719" lon="5.86447">
        <ele>2.5406494140625</ele>
        <time>2015-07-22T07:38:52Z</time>
      </trkpt>
      <trkpt lat="43.04696" lon="5.86376">
        <ele>2.5406494140625</ele>
        <time>2015-07-22T07:39:17Z</time>
      </trkpt>
      <trkpt lat="43.04672" lon="5.86291">
        <ele>2.5406494140625</ele>
        <time>2015-07-22T07:39:47Z</time>
      </trkpt>
      <trkpt lat="43.04651" lon="5.8624">
        <ele>3.021240234375</ele>
        <time>2015-07-22T07:40:07Z</time>
      </trkpt>
      <trkpt lat="43.04627" lon="5.86142">
        <ele>2.5406494140625</ele>
        <time>2015-07-22T07:40:37Z</time>
      </trkpt>
      <trkpt lat="43.04606" lon="5.86085">
        <ele>3.021240234375</ele>
        <time>2015-07-22T07:40:57Z</time>
      </trkpt>
      <trkpt lat="43.04584" lon="5.86028">
        <ele>3.021240234375</ele>
        <time>2015-07-22T07:41:17Z</time>
      </trkpt>
      <trkpt lat="43.04573" lon="5.85985">
        <ele>2.5406494140625</ele>
        <time>2015-07-22T07:41:32Z</time>
      </trkpt>
      <trkpt lat="43.04566" lon="5.85963">
        <ele>3.021240234375</ele>
        <time>2015-07-22T07:41:42Z</time>
      </trkpt>
      <trkpt lat="43.04545" lon="5.85868">
        <ele>3.021240234375</ele>
        <time>2015-07-22T07:42:12Z</time>
      </trkpt>
      <trkpt lat="43.04528" lon="5.85776">
        <ele>3.021240234375</ele>
        <time>2015-07-22T07:42:37Z</time>
      </trkpt>
      <trkpt lat="43.04524" lon="5.85717">
        <ele>3.021240234375</ele>
        <time>2015-07-22T07:42:57Z</time>
      </trkpt>
      <trkpt lat="43.0452" lon="5.85637">
        <ele>2.5406494140625</ele>
        <time>2015-07-22T07:43:22Z</time>
      </trkpt>
      <trkpt lat="43.04496" lon="5.85542">
        <ele>3.501953125</ele>
        <time>2015-07-22T07:43:52Z</time>
      </trkpt>
      <trkpt lat="43.04492" lon="5.85518">
        <ele>3.501953125</ele>
        <time>2015-07-22T07:44:02Z</time>
      </trkpt>
      <trkpt lat="43.04479" lon="5.85426">
        <ele>3.982666015625</ele>
        <time>2015-07-22T07:44:32Z</time>
      </trkpt>
      <trkpt lat="43.04459" lon="5.85315">
        <ele>3.982666015625</ele>
        <time>2015-07-22T07:45:07Z</time>
      </trkpt>
      <trkpt lat="43.04461" lon="5.85244">
        <ele>3.982666015625</ele>
        <time>2015-07-22T07:45:27Z</time>
      </trkpt>
      <trkpt lat="43.04464" lon="5.85228">
        <ele>3.982666015625</ele>
        <time>2015-07-22T07:45:32Z</time>
      </trkpt>
      <trkpt lat="43.0446" lon="5.85171">
        <ele>4.4632568359375</ele>
        <time>2015-07-22T07:46:02Z</time>
      </trkpt>
      <trkpt lat="43.04457" lon="5.8516">
        <ele>4.4632568359375</ele>
        <time>2015-07-22T07:46:12Z</time>
      </trkpt>
      <trkpt lat="43.04453" lon="5.85161">
        <ele>4.4632568359375</ele>
        <time>2015-07-22T07:46:34Z</time>
      </trkpt>
      <trkpt lat="43.04455" lon="5.85165">
        <ele>4.4632568359375</ele>
        <time>2015-07-22T07:46:41Z</time>
      </trkpt>
      <trkpt lat="43.04471" lon="5.85205">
        <ele>4.94384765625</ele>
        <time>2015-07-22T07:47:04Z</time>
      </trkpt>
      <trkpt lat="43.04488" lon="5.85264">
        <ele>4.4632568359375</ele>
        <time>2015-07-22T07:47:29Z</time>
      </trkpt>
      <trkpt lat="43.04494" lon="5.85359">
        <ele>4.4632568359375</ele>
        <time>2015-07-22T07:48:04Z</time>
      </trkpt>
      <trkpt lat="43.04491" lon="5.85389">
        <ele>4.94384765625</ele>
        <time>2015-07-22T07:48:17Z</time>
      </trkpt>
      <trkpt lat="43.04495" lon="5.8544">
        <ele>3.982666015625</ele>
        <time>2015-07-22T07:48:35Z</time>
      </trkpt>
      <trkpt lat="43.04497" lon="5.85495">
        <ele>4.4632568359375</ele>
        <time>2015-07-22T07:48:55Z</time>
      </trkpt>
      <trkpt lat="43.04502" lon="5.85569">
        <ele>3.982666015625</ele>
        <time>2015-07-22T07:49:20Z</time>
      </trkpt>
      <trkpt lat="43.04513" lon="5.85622">
        <ele>3.982666015625</ele>
        <time>2015-07-22T07:49:40Z</time>
      </trkpt>
      <trkpt lat="43.04523" lon="5.85724">
        <ele>3.982666015625</ele>
        <time>2015-07-22T07:50:15Z</time>
      </trkpt>
      <trkpt lat="43.04536" lon="5.85793">
        <ele>3.501953125</ele>
        <time>2015-07-22T07:50:40Z</time>
      </trkpt>
      <trkpt lat="43.04554" lon="5.85856">
        <ele>3.982666015625</ele>
        <time>2015-07-22T07:51:05Z</time>
      </trkpt>
      <trkpt lat="43.04567" lon="5.85899">
        <ele>4.4632568359375</ele>
        <time>2015-07-22T07:51:25Z</time>
      </trkpt>
      <trkpt lat="43.04581" lon="5.8594">
        <ele>4.4632568359375</ele>
        <time>2015-07-22T07:51:50Z</time>
      </trkpt>
      <trkpt lat="43.04615" lon="5.85943">
        <ele>3.021240234375</ele>
        <time>2015-07-22T07:52:05Z</time>
      </trkpt>
      <trkpt lat="43.04633" lon="5.85938">
        <ele>3.021240234375</ele>
        <time>2015-07-22T07:52:16Z</time>
      </trkpt>
      <trkpt lat="43.04667" lon="5.85918">
        <ele>2.5406494140625</ele>
        <time>2015-07-22T07:52:30Z</time>
      </trkpt>
      <trkpt lat="43.04717" lon="5.85907">
        <ele>3.021240234375</ele>
        <time>2015-07-22T07:52:55Z</time>
      </trkpt>
      <trkpt lat="43.04757" lon="5.85917">
        <ele>3.021240234375</ele>
        <time>2015-07-22T07:53:16Z</time>
      </trkpt>
      <trkpt lat="43.04786" lon="5.85918">
        <ele>3.021240234375</ele>
        <time>2015-07-22T07:53:31Z</time>
      </trkpt>
      <trkpt lat="43.04822" lon="5.85902">
        <ele>2.5406494140625</ele>
        <time>2015-07-22T07:54:00Z</time>
      </trkpt>
      <trkpt lat="43.04826" lon="5.85912">
        <ele>2.06005859375</ele>
        <time>2015-07-22T07:54:32Z</time>
      </trkpt>
      <trkpt lat="43.04826" lon="5.85912">
        <ele>1.579345703125</ele>
        <time>2015-07-22T07:54:35Z</time>
      </trkpt>
      <trkpt lat="43.04811" lon="5.85908">
        <ele>2.5406494140625</ele>
        <time>2015-07-22T07:54:55Z</time>
      </trkpt>
      <trkpt lat="43.04833" lon="5.85902">
        <ele>5.9052734375</ele>
        <time>2015-07-22T07:55:41Z</time>
      </trkpt>
      <trkpt lat="43.04836" lon="5.85901">
        <ele>2.06005859375</ele>
        <time>2015-07-22T07:55:44Z</time>
      </trkpt>
      <trkpt lat="43.0483" lon="5.85927">
        <ele>1.579345703125</ele>
        <time>2015-07-22T07:57:07Z</time>
      </trkpt>
      <trkpt lat="43.04831" lon="5.85926">
        <ele>7.827880859375</ele>
        <time>2015-07-22T07:57:09Z</time>
      </trkpt>
      <trkpt lat="43.0483" lon="5.85925">
        <ele>5.9052734375</ele>
        <time>2015-07-22T07:57:10Z</time>
      </trkpt>
      <trkpt lat="43.04829" lon="5.85924">
        <ele>3.982666015625</ele>
        <time>2015-07-22T07:57:12Z</time>
      </trkpt>
      <trkpt lat="43.0483" lon="5.85924">
        <ele>7.34716796875</ele>
        <time>2015-07-22T07:57:13Z</time>
      </trkpt>
      <trkpt lat="43.04829" lon="5.85923">
        <ele>4.94384765625</ele>
        <time>2015-07-22T07:57:14Z</time>
      </trkpt>
      <trkpt lat="43.04825" lon="5.85921">
        <ele>5.424560546875</ele>
        <time>2015-07-22T07:57:51Z</time>
      </trkpt>
      <trkpt lat="43.0482" lon="5.85934">
        <ele>6.866455078125</ele>
        <time>2015-07-22T07:58:09Z</time>
      </trkpt>
      <trkpt lat="43.0482" lon="5.85936">
        <ele>3.501953125</ele>
        <time>2015-07-22T07:58:11Z</time>
      </trkpt>
      <trkpt lat="43.04823" lon="5.85928">
        <ele>7.34716796875</ele>
        <time>2015-07-22T07:58:15Z</time>
      </trkpt>
      <trkpt lat="43.04822" lon="5.85929">
        <ele>3.982666015625</ele>
        <time>2015-07-22T07:58:26Z</time>
      </trkpt>
      <trkpt lat="43.04823" lon="5.85926">
        <ele>6.866455078125</ele>
        <time>2015-07-22T07:58:46Z</time>
      </trkpt>
      <trkpt lat="43.04822" lon="5.85911">
        <ele>5.424560546875</ele>
        <time>2015-07-22T07:58:56Z</time>
      </trkpt>
      <trkpt lat="43.0482" lon="5.85924">
        <ele>-2.7467041015625</ele>
        <time>2015-07-22T07:59:37Z</time>
      </trkpt>
      <trkpt lat="43.0482" lon="5.85925">
        <ele>9.7506103515625</ele>
        <time>2015-07-22T07:59:38Z</time>
      </trkpt>
      <trkpt lat="43.0482" lon="5.85925">
        <ele>2.5406494140625</ele>
        <time>2015-07-22T07:59:39Z</time>
      </trkpt>
      <trkpt lat="43.0482" lon="5.85925">
        <ele>16.479736328125</ele>
        <time>2015-07-22T07:59:40Z</time>
      </trkpt>
      <trkpt lat="43.04819" lon="5.85925">
        <ele>7.34716796875</ele>
        <time>2015-07-22T07:59:41Z</time>
      </trkpt>
      <trkpt lat="43.0482" lon="5.85925">
        <ele>6.3858642578125</ele>
        <time>2015-07-22T07:59:43Z</time>
      </trkpt>
      <trkpt lat="43.0483" lon="5.85922">
        <ele>5.424560546875</ele>
        <time>2015-07-22T07:59:56Z</time>
      </trkpt>
      <trkpt lat="43.04844" lon="5.85909">
        <ele>6.3858642578125</ele>
        <time>2015-07-22T08:00:48Z</time>
      </trkpt>
      <trkpt lat="43.04852" lon="5.85919">
        <ele>5.9052734375</ele>
        <time>2015-07-22T08:01:53Z</time>
      </trkpt>
      <trkpt lat="43.04813" lon="5.85931">
        <ele>6.866455078125</ele>
        <time>2015-07-22T08:04:32Z</time>
      </trkpt>
      <trkpt lat="43.04821" lon="5.85912">
        <ele>7.34716796875</ele>
        <time>2015-07-22T08:04:57Z</time>
      </trkpt>
      <trkpt lat="43.04832" lon="5.8591">
        <ele>7.34716796875</ele>
        <time>2015-07-22T08:05:24Z</time>
      </trkpt>
      <trkpt lat="43.04836" lon="5.85908">
        <ele>6.866455078125</ele>
        <time>2015-07-22T08:05:54Z</time>
      </trkpt>
      <trkpt lat="43.04833" lon="5.85932">
        <ele>6.866455078125</ele>
        <time>2015-07-22T08:07:55Z</time>
      </trkpt>
      <trkpt lat="43.04811" lon="5.85912">
        <ele>7.34716796875</ele>
        <time>2015-07-22T08:08:41Z</time>
      </trkpt>
      <trkpt lat="43.04832" lon="5.85922">
        <ele>8.7891845703125</ele>
        <time>2015-07-22T08:12:05Z</time>
      </trkpt>
      <trkpt lat="43.04832" lon="5.85918">
        <ele>8.7891845703125</ele>
        <time>2015-07-22T08:12:17Z</time>
      </trkpt>
      <trkpt lat="43.04824" lon="5.85904">
        <ele>10.231201171875</ele>
        <time>2015-07-22T08:14:38Z</time>
      </trkpt>
      <trkpt lat="43.04851" lon="5.85921">
        <ele>10.231201171875</ele>
        <time>2015-07-22T08:15:37Z</time>
      </trkpt>
      <trkpt lat="43.04831" lon="5.85914">
        <ele>11.673217773438</ele>
        <time>2015-07-22T08:16:29Z</time>
      </trkpt>
      <trkpt lat="43.0482" lon="5.85908">
        <ele>7.827880859375</ele>
        <time>2015-07-22T08:16:53Z</time>
      </trkpt>
      <trkpt lat="43.0482" lon="5.85909">
        <ele>11.673217773438</ele>
        <time>2015-07-22T08:16:54Z</time>
      </trkpt>
      <trkpt lat="43.04833" lon="5.85915">
        <ele>11.192504882812</ele>
        <time>2015-07-22T08:17:16Z</time>
      </trkpt>
      <trkpt lat="43.04827" lon="5.85912">
        <ele>10.231201171875</ele>
        <time>2015-07-22T08:18:00Z</time>
      </trkpt>
      <trkpt lat="43.0482" lon="5.85916">
        <ele>10.231201171875</ele>
        <time>2015-07-22T08:18:11Z</time>
      </trkpt>
      <trkpt lat="43.04798" lon="5.85929">
        <ele>10.231201171875</ele>
        <time>2015-07-22T08:18:28Z</time>
      </trkpt>
      <trkpt lat="43.04794" lon="5.85965">
        <ele>10.231201171875</ele>
        <time>2015-07-22T08:18:45Z</time>
      </trkpt>
      <trkpt lat="43.04798" lon="5.86016">
        <ele>10.231201171875</ele>
        <time>2015-07-22T08:19:03Z</time>
      </trkpt>
      <trkpt lat="43.04799" lon="5.86057">
        <ele>9.7506103515625</ele>
        <time>2015-07-22T08:19:17Z</time>
      </trkpt>
      <trkpt lat="43.04799" lon="5.861">
        <ele>9.7506103515625</ele>
        <time>2015-07-22T08:19:33Z</time>
      </trkpt>
      <trkpt lat="43.04797" lon="5.86116">
        <ele>9.2698974609375</ele>
        <time>2015-07-22T08:19:43Z</time>
      </trkpt>
      <trkpt lat="43.0478" lon="5.86156">
        <ele>9.7506103515625</ele>
        <time>2015-07-22T08:20:03Z</time>
      </trkpt>
      <trkpt lat="43.04774" lon="5.86198">
        <ele>9.2698974609375</ele>
        <time>2015-07-22T08:20:18Z</time>
      </trkpt>
      <trkpt lat="43.04769" lon="5.86251">
        <ele>9.2698974609375</ele>
        <time>2015-07-22T08:20:33Z</time>
      </trkpt>
      <trkpt lat="43.04766" lon="5.86314">
        <ele>9.2698974609375</ele>
        <time>2015-07-22T08:20:56Z</time>
      </trkpt>
      <trkpt lat="43.0477" lon="5.86357">
        <ele>8.7891845703125</ele>
        <time>2015-07-22T08:21:10Z</time>
      </trkpt>
      <trkpt lat="43.04772" lon="5.86406">
        <ele>8.30859375</ele>
        <time>2015-07-22T08:21:28Z</time>
      </trkpt>
      <trkpt lat="43.04782" lon="5.86495">
        <ele>8.30859375</ele>
        <time>2015-07-22T08:21:58Z</time>
      </trkpt>
      <trkpt lat="43.04797" lon="5.86555">
        <ele>8.7891845703125</ele>
        <time>2015-07-22T08:22:18Z</time>
      </trkpt>
      <trkpt lat="43.04821" lon="5.8663">
        <ele>8.30859375</ele>
        <time>2015-07-22T08:22:48Z</time>
      </trkpt>
      <trkpt lat="43.04827" lon="5.8665">
        <ele>8.7891845703125</ele>
        <time>2015-07-22T08:22:58Z</time>
      </trkpt>
      <trkpt lat="43.04847" lon="5.86703">
        <ele>8.7891845703125</ele>
        <time>2015-07-22T08:23:28Z</time>
      </trkpt>
      <trkpt lat="43.04861" lon="5.86741">
        <ele>8.30859375</ele>
        <time>2015-07-22T08:24:03Z</time>
      </trkpt>
      <trkpt lat="43.04862" lon="5.86741">
        <ele>8.30859375</ele>
        <time>2015-07-22T08:24:24Z</time>
      </trkpt>
      <trkpt lat="43.0486" lon="5.86734">
        <ele>8.30859375</ele>
        <time>2015-07-22T08:24:42Z</time>
      </trkpt>
      <trkpt lat="43.04859" lon="5.86738">
        <ele>8.30859375</ele>
        <time>2015-07-22T08:25:03Z</time>
      </trkpt>
      <trkpt lat="43.04859" lon="5.8678">
        <ele>8.30859375</ele>
        <time>2015-07-22T08:25:28Z</time>
      </trkpt>
      <trkpt lat="43.04862" lon="5.86806">
        <ele>8.30859375</ele>
        <time>2015-07-22T08:25:48Z</time>
      </trkpt>
      <trkpt lat="43.04868" lon="5.86827">
        <ele>8.30859375</ele>
        <time>2015-07-22T08:25:56Z</time>
      </trkpt>
      <trkpt lat="43.04871" lon="5.86839">
        <ele>8.30859375</ele>
        <time>2015-07-22T08:26:02Z</time>
      </trkpt>
      <trkpt lat="43.04887" lon="5.86869">
        <ele>7.827880859375</ele>
        <time>2015-07-22T08:26:21Z</time>
      </trkpt>
      <trkpt lat="43.04904" lon="5.86886">
        <ele>8.30859375</ele>
        <time>2015-07-22T08:26:36Z</time>
      </trkpt>
      <trkpt lat="43.04917" lon="5.86903">
        <ele>7.827880859375</ele>
        <time>2015-07-22T08:27:06Z</time>
      </trkpt>
      <trkpt lat="43.04922" lon="5.86906">
        <ele>7.827880859375</ele>
        <time>2015-07-22T08:27:26Z</time>
      </trkpt>
      <trkpt lat="43.04923" lon="5.86898">
        <ele>7.827880859375</ele>
        <time>2015-07-22T08:27:51Z</time>
      </trkpt>
      <trkpt lat="43.04927" lon="5.86893">
        <ele>7.34716796875</ele>
        <time>2015-07-22T08:28:30Z</time>
      </trkpt>
      <trkpt lat="43.0496" lon="5.8689">
        <ele>7.34716796875</ele>
        <time>2015-07-22T08:28:49Z</time>
      </trkpt>
      <trkpt lat="43.0499" lon="5.86901">
        <ele>7.34716796875</ele>
        <time>2015-07-22T08:29:06Z</time>
      </trkpt>
      <trkpt lat="43.05" lon="5.86903">
        <ele>7.34716796875</ele>
        <time>2015-07-22T08:29:11Z</time>
      </trkpt>
      <trkpt lat="43.05042" lon="5.86932">
        <ele>6.866455078125</ele>
        <time>2015-07-22T08:29:36Z</time>
      </trkpt>
      <trkpt lat="43.05077" lon="5.86957">
        <ele>7.34716796875</ele>
        <time>2015-07-22T08:29:56Z</time>
      </trkpt>
      <trkpt lat="43.05097" lon="5.86967">
        <ele>6.866455078125</ele>
        <time>2015-07-22T08:30:06Z</time>
      </trkpt>
      <trkpt lat="43.05114" lon="5.86982">
        <ele>7.34716796875</ele>
        <time>2015-07-22T08:30:16Z</time>
      </trkpt>
      <trkpt lat="43.05128" lon="5.86999">
        <ele>7.34716796875</ele>
        <time>2015-07-22T08:30:27Z</time>
      </trkpt>
      <trkpt lat="43.0516" lon="5.87019">
        <ele>6.866455078125</ele>
        <time>2015-07-22T08:30:48Z</time>
      </trkpt>
      <trkpt lat="43.05196" lon="5.87041">
        <ele>6.866455078125</ele>
        <time>2015-07-22T08:31:08Z</time>
      </trkpt>
      <trkpt lat="43.05229" lon="5.87081">
        <ele>7.34716796875</ele>
        <time>2015-07-22T08:31:28Z</time>
      </trkpt>
      <trkpt lat="43.05264" lon="5.87112">
        <ele>7.34716796875</ele>
        <time>2015-07-22T08:31:48Z</time>
      </trkpt>
      <trkpt lat="43.05299" lon="5.87151">
        <ele>6.866455078125</ele>
        <time>2015-07-22T08:32:09Z</time>
      </trkpt>
      <trkpt lat="43.05337" lon="5.87177">
        <ele>6.866455078125</ele>
        <time>2015-07-22T08:32:29Z</time>
      </trkpt>
      <trkpt lat="43.05389" lon="5.8722">
        <ele>6.866455078125</ele>
        <time>2015-07-22T08:32:59Z</time>
      </trkpt>
      <trkpt lat="43.05444" lon="5.87271">
        <ele>7.34716796875</ele>
        <time>2015-07-22T08:33:29Z</time>
      </trkpt>
      <trkpt lat="43.05488" lon="5.87324">
        <ele>6.866455078125</ele>
        <time>2015-07-22T08:33:54Z</time>
      </trkpt>
      <trkpt lat="43.0553" lon="5.87369">
        <ele>6.3858642578125</ele>
        <time>2015-07-22T08:34:19Z</time>
      </trkpt>
      <trkpt lat="43.05538" lon="5.87378">
        <ele>6.3858642578125</ele>
        <time>2015-07-22T08:34:24Z</time>
      </trkpt>
      <trkpt lat="43.05559" lon="5.87391">
        <ele>6.866455078125</ele>
        <time>2015-07-22T08:34:34Z</time>
      </trkpt>
      <trkpt lat="43.05608" lon="5.87437">
        <ele>6.3858642578125</ele>
        <time>2015-07-22T08:35:04Z</time>
      </trkpt>
      <trkpt lat="43.05631" lon="5.87469">
        <ele>5.9052734375</ele>
        <time>2015-07-22T08:35:19Z</time>
      </trkpt>
      <trkpt lat="43.05688" lon="5.87516">
        <ele>6.866455078125</ele>
        <time>2015-07-22T08:35:49Z</time>
      </trkpt>
      <trkpt lat="43.05747" lon="5.87569">
        <ele>6.3858642578125</ele>
        <time>2015-07-22T08:36:19Z</time>
      </trkpt>
      <trkpt lat="43.0578" lon="5.87602">
        <ele>6.3858642578125</ele>
        <time>2015-07-22T08:36:39Z</time>
      </trkpt>
      <trkpt lat="43.05826" lon="5.87661">
        <ele>6.3858642578125</ele>
        <time>2015-07-22T08:37:07Z</time>
      </trkpt>
      <trkpt lat="43.05864" lon="5.87702">
        <ele>5.9052734375</ele>
        <time>2015-07-22T08:37:30Z</time>
      </trkpt>
      <trkpt lat="43.05876" lon="5.87729">
        <ele>5.424560546875</ele>
        <time>2015-07-22T08:37:40Z</time>
      </trkpt>
      <trkpt lat="43.05922" lon="5.87771">
        <ele>5.9052734375</ele>
        <time>2015-07-22T08:38:05Z</time>
      </trkpt>
      <trkpt lat="43.05948" lon="5.87803">
        <ele>5.9052734375</ele>
        <time>2015-07-22T08:38:20Z</time>
      </trkpt>
      <trkpt lat="43.05974" lon="5.8783">
        <ele>5.9052734375</ele>
        <time>2015-07-22T08:38:36Z</time>
      </trkpt>
      <trkpt lat="43.06011" lon="5.87866">
        <ele>5.9052734375</ele>
        <time>2015-07-22T08:38:56Z</time>
      </trkpt>
      <trkpt lat="43.06081" lon="5.8792">
        <ele>5.9052734375</ele>
        <time>2015-07-22T08:39:31Z</time>
      </trkpt>
      <trkpt lat="43.06122" lon="5.87947">
        <ele>5.9052734375</ele>
        <time>2015-07-22T08:39:51Z</time>
      </trkpt>
      <trkpt lat="43.06156" lon="5.87998">
        <ele>5.9052734375</ele>
        <time>2015-07-22T08:40:11Z</time>
      </trkpt>
      <trkpt lat="43.06192" lon="5.88041">
        <ele>5.424560546875</ele>
        <time>2015-07-22T08:40:31Z</time>
      </trkpt>
      <trkpt lat="43.06203" lon="5.88046">
        <ele>5.424560546875</ele>
        <time>2015-07-22T08:40:36Z</time>
      </trkpt>
      <trkpt lat="43.06232" lon="5.8807">
        <ele>5.9052734375</ele>
        <time>2015-07-22T08:40:51Z</time>
      </trkpt>
      <trkpt lat="43.06271" lon="5.88099">
        <ele>5.9052734375</ele>
        <time>2015-07-22T08:41:11Z</time>
      </trkpt>
      <trkpt lat="43.06339" lon="5.8816">
        <ele>5.9052734375</ele>
        <time>2015-07-22T08:41:46Z</time>
      </trkpt>
      <trkpt lat="43.06372" lon="5.88185">
        <ele>5.9052734375</ele>
        <time>2015-07-22T08:42:02Z</time>
      </trkpt>
      <trkpt lat="43.06432" lon="5.88237">
        <ele>5.9052734375</ele>
        <time>2015-07-22T08:42:32Z</time>
      </trkpt>
      <trkpt lat="43.0649" lon="5.88291">
        <ele>5.9052734375</ele>
        <time>2015-07-22T08:43:02Z</time>
      </trkpt>
      <trkpt lat="43.06537" lon="5.88337">
        <ele>5.9052734375</ele>
        <time>2015-07-22T08:43:27Z</time>
      </trkpt>
      <trkpt lat="43.06594" lon="5.88404">
        <ele>5.9052734375</ele>
        <time>2015-07-22T08:43:57Z</time>
      </trkpt>
      <trkpt lat="43.06602" lon="5.88411">
        <ele>5.9052734375</ele>
        <time>2015-07-22T08:44:02Z</time>
      </trkpt>
      <trkpt lat="43.06645" lon="5.88433">
        <ele>5.9052734375</ele>
        <time>2015-07-22T08:44:27Z</time>
      </trkpt>
      <trkpt lat="43.06654" lon="5.8844">
        <ele>5.9052734375</ele>
        <time>2015-07-22T08:44:32Z</time>
      </trkpt>
      <trkpt lat="43.06715" lon="5.88491">
        <ele>6.3858642578125</ele>
        <time>2015-07-22T08:45:02Z</time>
      </trkpt>
      <trkpt lat="43.06782" lon="5.88554">
        <ele>6.3858642578125</ele>
        <time>2015-07-22T08:45:37Z</time>
      </trkpt>
      <trkpt lat="43.06835" lon="5.88592">
        <ele>5.9052734375</ele>
        <time>2015-07-22T08:46:02Z</time>
      </trkpt>
      <trkpt lat="43.0687" lon="5.8863">
        <ele>5.9052734375</ele>
        <time>2015-07-22T08:46:22Z</time>
      </trkpt>
      <trkpt lat="43.06932" lon="5.88673">
        <ele>6.3858642578125</ele>
        <time>2015-07-22T08:46:52Z</time>
      </trkpt>
      <trkpt lat="43.06951" lon="5.88697">
        <ele>5.9052734375</ele>
        <time>2015-07-22T08:47:02Z</time>
      </trkpt>
      <trkpt lat="43.06966" lon="5.8871">
        <ele>5.9052734375</ele>
        <time>2015-07-22T08:47:12Z</time>
      </trkpt>
      <trkpt lat="43.07042" lon="5.88789">
        <ele>5.9052734375</ele>
        <time>2015-07-22T08:47:52Z</time>
      </trkpt>
      <trkpt lat="43.07106" lon="5.88842">
        <ele>5.9052734375</ele>
        <time>2015-07-22T08:48:22Z</time>
      </trkpt>
      <trkpt lat="43.07132" lon="5.88866">
        <ele>6.3858642578125</ele>
        <time>2015-07-22T08:48:37Z</time>
      </trkpt>
      <trkpt lat="43.07188" lon="5.88919">
        <ele>5.424560546875</ele>
        <time>2015-07-22T08:49:07Z</time>
      </trkpt>
      <trkpt lat="43.07249" lon="5.8898">
        <ele>5.424560546875</ele>
        <time>2015-07-22T08:49:37Z</time>
      </trkpt>
      <trkpt lat="43.07309" lon="5.89047">
        <ele>5.9052734375</ele>
        <time>2015-07-22T08:50:07Z</time>
      </trkpt>
      <trkpt lat="43.07361" lon="5.89089">
        <ele>5.9052734375</ele>
        <time>2015-07-22T08:50:32Z</time>
      </trkpt>
      <trkpt lat="43.0741" lon="5.89141">
        <ele>5.9052734375</ele>
        <time>2015-07-22T08:50:57Z</time>
      </trkpt>
      <trkpt lat="43.07455" lon="5.89209">
        <ele>5.9052734375</ele>
        <time>2015-07-22T08:51:22Z</time>
      </trkpt>
      <trkpt lat="43.07516" lon="5.89268">
        <ele>5.9052734375</ele>
        <time>2015-07-22T08:51:52Z</time>
      </trkpt>
      <trkpt lat="43.07548" lon="5.89283">
        <ele>6.3858642578125</ele>
        <time>2015-07-22T08:52:07Z</time>
      </trkpt>
      <trkpt lat="43.07601" lon="5.89337">
        <ele>6.3858642578125</ele>
        <time>2015-07-22T08:52:37Z</time>
      </trkpt>
      <trkpt lat="43.07634" lon="5.89397">
        <ele>6.3858642578125</ele>
        <time>2015-07-22T08:53:02Z</time>
      </trkpt>
      <trkpt lat="43.07693" lon="5.89437">
        <ele>5.9052734375</ele>
        <time>2015-07-22T08:53:37Z</time>
      </trkpt>
      <trkpt lat="43.07737" lon="5.89466">
        <ele>5.9052734375</ele>
        <time>2015-07-22T08:54:02Z</time>
      </trkpt>
      <trkpt lat="43.07754" lon="5.8947">
        <ele>6.3858642578125</ele>
        <time>2015-07-22T08:54:19Z</time>
      </trkpt>
      <trkpt lat="43.07781" lon="5.89467">
        <ele>5.9052734375</ele>
        <time>2015-07-22T08:54:44Z</time>
      </trkpt>
      <trkpt lat="43.07807" lon="5.8947">
        <ele>6.3858642578125</ele>
        <time>2015-07-22T08:55:09Z</time>
      </trkpt>
      <trkpt lat="43.07824" lon="5.8948">
        <ele>5.9052734375</ele>
        <time>2015-07-22T08:55:34Z</time>
      </trkpt>
      <trkpt lat="43.07833" lon="5.89483">
        <ele>6.3858642578125</ele>
        <time>2015-07-22T08:55:59Z</time>
      </trkpt>
      <trkpt lat="43.07832" lon="5.89486">
        <ele>3.021240234375</ele>
        <time>2015-07-22T08:56:09Z</time>
      </trkpt>
      <trkpt lat="43.07834" lon="5.89484">
        <ele>4.94384765625</ele>
        <time>2015-07-22T08:56:14Z</time>
      </trkpt>
      <trkpt lat="43.07836" lon="5.89483">
        <ele>6.866455078125</ele>
        <time>2015-07-22T08:56:24Z</time>
      </trkpt>
      <trkpt lat="43.07846" lon="5.89474">
        <ele>7.34716796875</ele>
        <time>2015-07-22T08:56:54Z</time>
      </trkpt>
      <trkpt lat="43.07861" lon="5.89478">
        <ele>7.827880859375</ele>
        <time>2015-07-22T08:57:14Z</time>
      </trkpt>
      <trkpt lat="43.07878" lon="5.89483">
        <ele>8.30859375</ele>
        <time>2015-07-22T08:57:39Z</time>
      </trkpt>
      <trkpt lat="43.07884" lon="5.89489">
        <ele>8.30859375</ele>
        <time>2015-07-22T08:57:59Z</time>
      </trkpt>
      <trkpt lat="43.07882" lon="5.89483">
        <ele>7.827880859375</ele>
        <time>2015-07-22T08:58:08Z</time>
      </trkpt>
      <trkpt lat="43.07882" lon="5.89483">
        <ele>1.0986328125</ele>
        <time>2015-07-22T08:58:11Z</time>
      </trkpt>
      <trkpt lat="43.07883" lon="5.89483">
        <ele>8.7891845703125</ele>
        <time>2015-07-22T08:58:16Z</time>
      </trkpt>
      <trkpt lat="43.07887" lon="5.89482">
        <ele>8.7891845703125</ele>
        <time>2015-07-22T08:58:21Z</time>
      </trkpt>
      <trkpt lat="43.07891" lon="5.89482">
        <ele>8.7891845703125</ele>
        <time>2015-07-22T08:58:26Z</time>
      </trkpt>
      <trkpt lat="43.07923" lon="5.89509">
        <ele>8.30859375</ele>
        <time>2015-07-22T08:59:01Z</time>
      </trkpt>
      <trkpt lat="43.07939" lon="5.89523">
        <ele>8.7891845703125</ele>
        <time>2015-07-22T08:59:21Z</time>
      </trkpt>
      <trkpt lat="43.07949" lon="5.89531">
        <ele>8.30859375</ele>
        <time>2015-07-22T08:59:36Z</time>
      </trkpt>
      <trkpt lat="43.07967" lon="5.89549">
        <ele>8.7891845703125</ele>
        <time>2015-07-22T08:59:58Z</time>
      </trkpt>
      <trkpt lat="43.07967" lon="5.89548">
        <ele>8.30859375</ele>
        <time>2015-07-22T09:00:15Z</time>
      </trkpt>
      <trkpt lat="43.07967" lon="5.89548">
        <ele>6.3858642578125</ele>
        <time>2015-07-22T09:00:20Z</time>
      </trkpt>
      <trkpt lat="43.07967" lon="5.89548">
        <ele>-7.072509765625</ele>
        <time>2015-07-22T09:00:22Z</time>
      </trkpt>
      <trkpt lat="43.07966" lon="5.89548">
        <ele>21.286376953125</ele>
        <time>2015-07-22T09:00:23Z</time>
      </trkpt>
      <trkpt lat="43.07967" lon="5.89548">
        <ele>10.231201171875</ele>
        <time>2015-07-22T09:00:24Z</time>
      </trkpt>
      <trkpt lat="43.07983" lon="5.8956">
        <ele>9.2698974609375</ele>
        <time>2015-07-22T09:00:43Z</time>
      </trkpt>
      <trkpt lat="43.08003" lon="5.89579">
        <ele>8.7891845703125</ele>
        <time>2015-07-22T09:01:08Z</time>
      </trkpt>
      <trkpt lat="43.08037" lon="5.89609">
        <ele>8.7891845703125</ele>
        <time>2015-07-22T09:01:41Z</time>
      </trkpt>
      <trkpt lat="43.08054" lon="5.89628">
        <ele>9.2698974609375</ele>
        <time>2015-07-22T09:02:01Z</time>
      </trkpt>
      <trkpt lat="43.08085" lon="5.89648">
        <ele>9.7506103515625</ele>
        <time>2015-07-22T09:02:26Z</time>
      </trkpt>
      <trkpt lat="43.08085" lon="5.89649">
        <ele>9.7506103515625</ele>
        <time>2015-07-22T09:02:36Z</time>
      </trkpt>
      <trkpt lat="43.08084" lon="5.89639">
        <ele>10.231201171875</ele>
        <time>2015-07-22T09:02:48Z</time>
      </trkpt>
      <trkpt lat="43.0809" lon="5.89635">
        <ele>9.2698974609375</ele>
        <time>2015-07-22T09:03:19Z</time>
      </trkpt>
      <trkpt lat="43.08086" lon="5.89637">
        <ele>8.7891845703125</ele>
        <time>2015-07-22T09:03:49Z</time>
      </trkpt>
      <trkpt lat="43.08089" lon="5.89635">
        <ele>8.7891845703125</ele>
        <time>2015-07-22T09:04:24Z</time>
      </trkpt>
      <trkpt lat="43.08097" lon="5.89642">
        <ele>8.7891845703125</ele>
        <time>2015-07-22T09:04:44Z</time>
      </trkpt>
      <trkpt lat="43.08089" lon="5.89642">
        <ele>8.7891845703125</ele>
        <time>2015-07-22T09:05:14Z</time>
      </trkpt>
      <trkpt lat="43.08089" lon="5.89631">
        <ele>8.7891845703125</ele>
        <time>2015-07-22T09:05:39Z</time>
      </trkpt>
      <trkpt lat="43.0809" lon="5.8963">
        <ele>8.30859375</ele>
        <time>2015-07-22T09:05:57Z</time>
      </trkpt>
      <trkpt lat="43.08102" lon="5.8963">
        <ele>10.711791992188</ele>
        <time>2015-07-22T09:06:32Z</time>
      </trkpt>
      <trkpt lat="43.08104" lon="5.89631">
        <ele>10.231201171875</ele>
        <time>2015-07-22T09:07:27Z</time>
      </trkpt>
      <trkpt lat="43.08105" lon="5.89638">
        <ele>9.2698974609375</ele>
        <time>2015-07-22T09:07:37Z</time>
      </trkpt>
      <trkpt lat="43.08115" lon="5.89647">
        <ele>7.34716796875</ele>
        <time>2015-07-22T09:07:52Z</time>
      </trkpt>
      <trkpt lat="43.08123" lon="5.89662">
        <ele>5.424560546875</ele>
        <time>2015-07-22T09:08:07Z</time>
      </trkpt>
      <trkpt lat="43.08128" lon="5.89679">
        <ele>3.501953125</ele>
        <time>2015-07-22T09:08:17Z</time>
      </trkpt>
      <trkpt lat="43.08159" lon="5.89749">
        <ele>5.424560546875</ele>
        <time>2015-07-22T09:08:52Z</time>
      </trkpt>
      <trkpt lat="43.0818" lon="5.8979">
        <ele>6.3858642578125</ele>
        <time>2015-07-22T09:09:07Z</time>
      </trkpt>
      <trkpt lat="43.08201" lon="5.89843">
        <ele>7.34716796875</ele>
        <time>2015-07-22T09:09:27Z</time>
      </trkpt>
      <trkpt lat="43.08225" lon="5.89889">
        <ele>8.7891845703125</ele>
        <time>2015-07-22T09:09:47Z</time>
      </trkpt>
      <trkpt lat="43.08249" lon="5.89951">
        <ele>8.7891845703125</ele>
        <time>2015-07-22T09:10:07Z</time>
      </trkpt>
      <trkpt lat="43.08262" lon="5.89979">
        <ele>12.15380859375</ele>
        <time>2015-07-22T09:10:17Z</time>
      </trkpt>
      <trkpt lat="43.08268" lon="5.89991">
        <ele>11.673217773438</ele>
        <time>2015-07-22T09:10:22Z</time>
      </trkpt>
      <trkpt lat="43.08285" lon="5.90057">
        <ele>11.673217773438</ele>
        <time>2015-07-22T09:10:47Z</time>
      </trkpt>
      <trkpt lat="43.0833" lon="5.90132">
        <ele>11.673217773438</ele>
        <time>2015-07-22T09:11:17Z</time>
      </trkpt>
      <trkpt lat="43.08375" lon="5.90191">
        <ele>11.192504882812</ele>
        <time>2015-07-22T09:11:47Z</time>
      </trkpt>
      <trkpt lat="43.08399" lon="5.90261">
        <ele>11.673217773438</ele>
        <time>2015-07-22T09:12:12Z</time>
      </trkpt>
      <trkpt lat="43.08435" lon="5.90334">
        <ele>11.673217773438</ele>
        <time>2015-07-22T09:12:42Z</time>
      </trkpt>
      <trkpt lat="43.08463" lon="5.90385">
        <ele>14.557006835938</ele>
        <time>2015-07-22T09:13:02Z</time>
      </trkpt>
      <trkpt lat="43.08487" lon="5.90447">
        <ele>13.595825195312</ele>
        <time>2015-07-22T09:13:27Z</time>
      </trkpt>
      <trkpt lat="43.08506" lon="5.90505">
        <ele>13.115112304688</ele>
        <time>2015-07-22T09:13:52Z</time>
      </trkpt>
      <trkpt lat="43.08543" lon="5.90584">
        <ele>12.634399414062</ele>
        <time>2015-07-22T09:14:22Z</time>
      </trkpt>
      <trkpt lat="43.08555" lon="5.90652">
        <ele>11.673217773438</ele>
        <time>2015-07-22T09:14:47Z</time>
      </trkpt>
      <trkpt lat="43.08557" lon="5.90741">
        <ele>11.673217773438</ele>
        <time>2015-07-22T09:15:12Z</time>
      </trkpt>
      <trkpt lat="43.08574" lon="5.90837">
        <ele>11.673217773438</ele>
        <time>2015-07-22T09:15:42Z</time>
      </trkpt>
      <trkpt lat="43.08598" lon="5.90923">
        <ele>11.192504882812</ele>
        <time>2015-07-22T09:16:07Z</time>
      </trkpt>
      <trkpt lat="43.08613" lon="5.90969">
        <ele>11.673217773438</ele>
        <time>2015-07-22T09:16:22Z</time>
      </trkpt>
      <trkpt lat="43.08643" lon="5.91079">
        <ele>11.673217773438</ele>
        <time>2015-07-22T09:16:57Z</time>
      </trkpt>
      <trkpt lat="43.0865" lon="5.91128">
        <ele>11.192504882812</ele>
        <time>2015-07-22T09:17:12Z</time>
      </trkpt>
      <trkpt lat="43.08656" lon="5.91151">
        <ele>11.192504882812</ele>
        <time>2015-07-22T09:17:22Z</time>
      </trkpt>
      <trkpt lat="43.08686" lon="5.91251">
        <ele>11.192504882812</ele>
        <time>2015-07-22T09:17:52Z</time>
      </trkpt>
      <trkpt lat="43.08699" lon="5.91332">
        <ele>11.673217773438</ele>
        <time>2015-07-22T09:18:17Z</time>
      </trkpt>
      <trkpt lat="43.08701" lon="5.91348">
        <ele>12.15380859375</ele>
        <time>2015-07-22T09:18:22Z</time>
      </trkpt>
      <trkpt lat="43.08722" lon="5.91424">
        <ele>8.7891845703125</ele>
        <time>2015-07-22T09:18:57Z</time>
      </trkpt>
      <trkpt lat="43.0873" lon="5.91457">
        <ele>9.2698974609375</ele>
        <time>2015-07-22T09:19:17Z</time>
      </trkpt>
      <trkpt lat="43.08738" lon="5.91489">
        <ele>6.3858642578125</ele>
        <time>2015-07-22T09:19:37Z</time>
      </trkpt>
      <trkpt lat="43.08737" lon="5.91543">
        <ele>5.9052734375</ele>
        <time>2015-07-22T09:19:57Z</time>
      </trkpt>
      <trkpt lat="43.08746" lon="5.91614">
        <ele>5.424560546875</ele>
        <time>2015-07-22T09:20:22Z</time>
      </trkpt>
      <trkpt lat="43.08759" lon="5.91676">
        <ele>6.866455078125</ele>
        <time>2015-07-22T09:20:47Z</time>
      </trkpt>
      <trkpt lat="43.08767" lon="5.91751">
        <ele>7.34716796875</ele>
        <time>2015-07-22T09:21:12Z</time>
      </trkpt>
      <trkpt lat="43.08783" lon="5.91822">
        <ele>8.7891845703125</ele>
        <time>2015-07-22T09:21:37Z</time>
      </trkpt>
      <trkpt lat="43.08803" lon="5.91891">
        <ele>7.827880859375</ele>
        <time>2015-07-22T09:22:02Z</time>
      </trkpt>
      <trkpt lat="43.08814" lon="5.91952">
        <ele>7.34716796875</ele>
        <time>2015-07-22T09:22:32Z</time>
      </trkpt>
      <trkpt lat="43.08833" lon="5.9201">
        <ele>6.3858642578125</ele>
        <time>2015-07-22T09:22:57Z</time>
      </trkpt>
      <trkpt lat="43.08834" lon="5.9209">
        <ele>6.866455078125</ele>
        <time>2015-07-22T09:23:22Z</time>
      </trkpt>
      <trkpt lat="43.08828" lon="5.92155">
        <ele>6.866455078125</ele>
        <time>2015-07-22T09:23:42Z</time>
      </trkpt>
      <trkpt lat="43.0884" lon="5.92185">
        <ele>6.866455078125</ele>
        <time>2015-07-22T09:23:52Z</time>
      </trkpt>
      <trkpt lat="43.08868" lon="5.92274">
        <ele>6.866455078125</ele>
        <time>2015-07-22T09:24:22Z</time>
      </trkpt>
      <trkpt lat="43.0888" lon="5.92338">
        <ele>6.866455078125</ele>
        <time>2015-07-22T09:24:42Z</time>
      </trkpt>
      <trkpt lat="43.08886" lon="5.9244">
        <ele>6.866455078125</ele>
        <time>2015-07-22T09:25:07Z</time>
      </trkpt>
      <trkpt lat="43.08896" lon="5.9253">
        <ele>5.9052734375</ele>
        <time>2015-07-22T09:25:37Z</time>
      </trkpt>
      <trkpt lat="43.08905" lon="5.92546">
        <ele>6.866455078125</ele>
        <time>2015-07-22T09:25:47Z</time>
      </trkpt>
      <trkpt lat="43.08915" lon="5.92557">
        <ele>4.94384765625</ele>
        <time>2015-07-22T09:26:07Z</time>
      </trkpt>
      <trkpt lat="43.08924" lon="5.92563">
        <ele>3.982666015625</ele>
        <time>2015-07-22T09:26:17Z</time>
      </trkpt>
      <trkpt lat="43.08937" lon="5.9257">
        <ele>3.021240234375</ele>
        <time>2015-07-22T09:26:37Z</time>
      </trkpt>
      <trkpt lat="43.08948" lon="5.92581">
        <ele>0.6180419921875</ele>
        <time>2015-07-22T09:27:07Z</time>
      </trkpt>
      <trkpt lat="43.08945" lon="5.92579">
        <ele>1.579345703125</ele>
        <time>2015-07-22T09:27:08Z</time>
      </trkpt>
      <trkpt lat="43.08949" lon="5.92587">
        <ele>1.0986328125</ele>
        <time>2015-07-22T09:27:13Z</time>
      </trkpt>
      <trkpt lat="43.08964" lon="5.92635">
        <ele>0.6180419921875</ele>
        <time>2015-07-22T09:27:38Z</time>
      </trkpt>
      <trkpt lat="43.08976" lon="5.92665">
        <ele>2.06005859375</ele>
        <time>2015-07-22T09:27:53Z</time>
      </trkpt>
      <trkpt lat="43.08997" lon="5.92724">
        <ele>2.06005859375</ele>
        <time>2015-07-22T09:28:18Z</time>
      </trkpt>
      <trkpt lat="43.09014" lon="5.92756">
        <ele>2.06005859375</ele>
        <time>2015-07-22T09:28:33Z</time>
      </trkpt>
      <trkpt lat="43.09024" lon="5.92794">
        <ele>3.501953125</ele>
        <time>2015-07-22T09:28:48Z</time>
      </trkpt>
      <trkpt lat="43.09057" lon="5.92886">
        <ele>3.501953125</ele>
        <time>2015-07-22T09:29:23Z</time>
      </trkpt>
      <trkpt lat="43.09083" lon="5.92964">
        <ele>3.021240234375</ele>
        <time>2015-07-22T09:29:52Z</time>
      </trkpt>
      <trkpt lat="43.09095" lon="5.93023">
        <ele>3.501953125</ele>
        <time>2015-07-22T09:30:13Z</time>
      </trkpt>
      <trkpt lat="43.09114" lon="5.93101">
        <ele>3.501953125</ele>
        <time>2015-07-22T09:30:38Z</time>
      </trkpt>
      <trkpt lat="43.09136" lon="5.93154">
        <ele>3.021240234375</ele>
        <time>2015-07-22T09:30:58Z</time>
      </trkpt>
      <trkpt lat="43.09139" lon="5.93199">
        <ele>3.021240234375</ele>
        <time>2015-07-22T09:31:13Z</time>
      </trkpt>
      <trkpt lat="43.09153" lon="5.93281">
        <ele>3.501953125</ele>
        <time>2015-07-22T09:31:38Z</time>
      </trkpt>
      <trkpt lat="43.09182" lon="5.93369">
        <ele>3.501953125</ele>
        <time>2015-07-22T09:32:08Z</time>
      </trkpt>
      <trkpt lat="43.09201" lon="5.93433">
        <ele>3.982666015625</ele>
        <time>2015-07-22T09:32:33Z</time>
      </trkpt>
      <trkpt lat="43.09215" lon="5.93497">
        <ele>3.501953125</ele>
        <time>2015-07-22T09:32:53Z</time>
      </trkpt>
      <trkpt lat="43.09225" lon="5.93554">
        <ele>3.501953125</ele>
        <time>2015-07-22T09:33:13Z</time>
      </trkpt>
      <trkpt lat="43.09242" lon="5.93605">
        <ele>3.501953125</ele>
        <time>2015-07-22T09:33:33Z</time>
      </trkpt>
      <trkpt lat="43.09247" lon="5.93599">
        <ele>3.982666015625</ele>
        <time>2015-07-22T09:33:34Z</time>
      </trkpt>
      <trkpt lat="43.09249" lon="5.93666">
        <ele>3.021240234375</ele>
        <time>2015-07-22T09:33:53Z</time>
      </trkpt>
      <trkpt lat="43.09267" lon="5.93776">
        <ele>3.982666015625</ele>
        <time>2015-07-22T09:34:28Z</time>
      </trkpt>
      <trkpt lat="43.0929" lon="5.93866">
        <ele>3.021240234375</ele>
        <time>2015-07-22T09:34:58Z</time>
      </trkpt>
      <trkpt lat="43.09293" lon="5.93896">
        <ele>3.982666015625</ele>
        <time>2015-07-22T09:35:08Z</time>
      </trkpt>
      <trkpt lat="43.09311" lon="5.93972">
        <ele>3.021240234375</ele>
        <time>2015-07-22T09:35:33Z</time>
      </trkpt>
      <trkpt lat="43.09334" lon="5.94068">
        <ele>3.982666015625</ele>
        <time>2015-07-22T09:36:08Z</time>
      </trkpt>
      <trkpt lat="43.09343" lon="5.9417">
        <ele>3.982666015625</ele>
        <time>2015-07-22T09:36:38Z</time>
      </trkpt>
      <trkpt lat="43.09342" lon="5.94185">
        <ele>3.982666015625</ele>
        <time>2015-07-22T09:36:43Z</time>
      </trkpt>
      <trkpt lat="43.09348" lon="5.94234">
        <ele>3.501953125</ele>
        <time>2015-07-22T09:37:09Z</time>
      </trkpt>
      <trkpt lat="43.09355" lon="5.94238">
        <ele>0.6180419921875</ele>
        <time>2015-07-22T09:37:19Z</time>
      </trkpt>
      <trkpt lat="43.09356" lon="5.94256">
        <ele>1.0986328125</ele>
        <time>2015-07-22T09:37:30Z</time>
      </trkpt>
      <trkpt lat="43.09367" lon="5.94268">
        <ele>-1.3046875</ele>
        <time>2015-07-22T09:37:50Z</time>
      </trkpt>
      <trkpt lat="43.09376" lon="5.94287">
        <ele>0.6180419921875</ele>
        <time>2015-07-22T09:38:12Z</time>
      </trkpt>
      <trkpt lat="43.09376" lon="5.94289">
        <ele>0.137451171875</ele>
        <time>2015-07-22T09:38:17Z</time>
      </trkpt>
      <trkpt lat="43.09378" lon="5.94277">
        <ele>3.501953125</ele>
        <time>2015-07-22T09:38:22Z</time>
      </trkpt>
      <trkpt lat="43.09379" lon="5.94273">
        <ele>3.021240234375</ele>
        <time>2015-07-22T09:38:27Z</time>
      </trkpt>
      <trkpt lat="43.09379" lon="5.94273">
        <ele>-0.3433837890625</ele>
        <time>2015-07-22T09:38:28Z</time>
      </trkpt>
      <trkpt lat="43.09383" lon="5.94281">
        <ele>5.424560546875</ele>
        <time>2015-07-22T09:38:30Z</time>
      </trkpt>
      <trkpt lat="43.09383" lon="5.9428">
        <ele>1.579345703125</ele>
        <time>2015-07-22T09:38:31Z</time>
      </trkpt>
      <trkpt lat="43.0939" lon="5.94296">
        <ele>1.579345703125</ele>
        <time>2015-07-22T09:38:55Z</time>
      </trkpt>
      <trkpt lat="43.09397" lon="5.94318">
        <ele>2.06005859375</ele>
        <time>2015-07-22T09:39:05Z</time>
      </trkpt>
      <trkpt lat="43.09397" lon="5.944">
        <ele>1.0986328125</ele>
        <time>2015-07-22T09:39:30Z</time>
      </trkpt>
      <trkpt lat="43.09414" lon="5.94483">
        <ele>1.579345703125</ele>
        <time>2015-07-22T09:40:05Z</time>
      </trkpt>
      <trkpt lat="43.09423" lon="5.94571">
        <ele>1.579345703125</ele>
        <time>2015-07-22T09:40:35Z</time>
      </trkpt>
      <trkpt lat="43.0942" lon="5.94678">
        <ele>1.579345703125</ele>
        <time>2015-07-22T09:41:05Z</time>
      </trkpt>
      <trkpt lat="43.09417" lon="5.94712">
        <ele>2.06005859375</ele>
        <time>2015-07-22T09:41:15Z</time>
      </trkpt>
      <trkpt lat="43.09423" lon="5.94753">
        <ele>2.06005859375</ele>
        <time>2015-07-22T09:41:30Z</time>
      </trkpt>
      <trkpt lat="43.09422" lon="5.94832">
        <ele>2.06005859375</ele>
        <time>2015-07-22T09:41:55Z</time>
      </trkpt>
      <trkpt lat="43.0942" lon="5.94859">
        <ele>2.06005859375</ele>
        <time>2015-07-22T09:42:05Z</time>
      </trkpt>
      <trkpt lat="43.09415" lon="5.9491">
        <ele>2.06005859375</ele>
        <time>2015-07-22T09:42:20Z</time>
      </trkpt>
      <trkpt lat="43.09408" lon="5.94955">
        <ele>2.06005859375</ele>
        <time>2015-07-22T09:42:35Z</time>
      </trkpt>
      <trkpt lat="43.09403" lon="5.95024">
        <ele>2.5406494140625</ele>
        <time>2015-07-22T09:43:00Z</time>
      </trkpt>
      <trkpt lat="43.09405" lon="5.95096">
        <ele>1.579345703125</ele>
        <time>2015-07-22T09:43:25Z</time>
      </trkpt>
      <trkpt lat="43.09403" lon="5.9515">
        <ele>2.5406494140625</ele>
        <time>2015-07-22T09:43:45Z</time>
      </trkpt>
      <trkpt lat="43.09411" lon="5.95212">
        <ele>2.06005859375</ele>
        <time>2015-07-22T09:44:05Z</time>
      </trkpt>
      <trkpt lat="43.09411" lon="5.9527">
        <ele>3.501953125</ele>
        <time>2015-07-22T09:44:25Z</time>
      </trkpt>
      <trkpt lat="43.09407" lon="5.95335">
        <ele>2.5406494140625</ele>
        <time>2015-07-22T09:44:45Z</time>
      </trkpt>
      <trkpt lat="43.09409" lon="5.95376">
        <ele>2.5406494140625</ele>
        <time>2015-07-22T09:45:00Z</time>
      </trkpt>
      <trkpt lat="43.0941" lon="5.95421">
        <ele>2.06005859375</ele>
        <time>2015-07-22T09:45:15Z</time>
      </trkpt>
      <trkpt lat="43.09414" lon="5.95515">
        <ele>2.5406494140625</ele>
        <time>2015-07-22T09:45:45Z</time>
      </trkpt>
      <trkpt lat="43.09414" lon="5.95579">
        <ele>2.06005859375</ele>
        <time>2015-07-22T09:46:05Z</time>
      </trkpt>
      <trkpt lat="43.09415" lon="5.95639">
        <ele>2.06005859375</ele>
        <time>2015-07-22T09:46:25Z</time>
      </trkpt>
      <trkpt lat="43.09423" lon="5.95694">
        <ele>2.5406494140625</ele>
        <time>2015-07-22T09:46:45Z</time>
      </trkpt>
      <trkpt lat="43.09431" lon="5.95738">
        <ele>3.021240234375</ele>
        <time>2015-07-22T09:47:06Z</time>
      </trkpt>
      <trkpt lat="43.09439" lon="5.9578">
        <ele>2.5406494140625</ele>
        <time>2015-07-22T09:47:24Z</time>
      </trkpt>
      <trkpt lat="43.09449" lon="5.95809">
        <ele>2.5406494140625</ele>
        <time>2015-07-22T09:47:44Z</time>
      </trkpt>
      <trkpt lat="43.09452" lon="5.95819">
        <ele>6.866455078125</ele>
        <time>2015-07-22T09:47:49Z</time>
      </trkpt>
      <trkpt lat="43.09453" lon="5.95822">
        <ele>2.5406494140625</ele>
        <time>2015-07-22T09:47:54Z</time>
      </trkpt>
      <trkpt lat="43.09464" lon="5.95825">
        <ele>3.021240234375</ele>
        <time>2015-07-22T09:48:19Z</time>
      </trkpt>
      <trkpt lat="43.09474" lon="5.9585">
        <ele>2.5406494140625</ele>
        <time>2015-07-22T09:48:49Z</time>
      </trkpt>
      <trkpt lat="43.09475" lon="5.95851">
        <ele>3.021240234375</ele>
        <time>2015-07-22T09:48:54Z</time>
      </trkpt>
      <trkpt lat="43.09489" lon="5.95872">
        <ele>2.5406494140625</ele>
        <time>2015-07-22T09:49:24Z</time>
      </trkpt>
      <trkpt lat="43.09493" lon="5.95888">
        <ele>2.06005859375</ele>
        <time>2015-07-22T09:49:34Z</time>
      </trkpt>
      <trkpt lat="43.09498" lon="5.9594">
        <ele>2.5406494140625</ele>
        <time>2015-07-22T09:49:54Z</time>
      </trkpt>
      <trkpt lat="43.09502" lon="5.95954">
        <ele>3.021240234375</ele>
        <time>2015-07-22T09:49:59Z</time>
      </trkpt>
      <trkpt lat="43.09508" lon="5.96049">
        <ele>3.021240234375</ele>
        <time>2015-07-22T09:50:34Z</time>
      </trkpt>
      <trkpt lat="43.09512" lon="5.96104">
        <ele>1.579345703125</ele>
        <time>2015-07-22T09:50:54Z</time>
      </trkpt>
      <trkpt lat="43.09508" lon="5.96189">
        <ele>2.5406494140625</ele>
        <time>2015-07-22T09:51:24Z</time>
      </trkpt>
      <trkpt lat="43.0951" lon="5.96217">
        <ele>3.021240234375</ele>
        <time>2015-07-22T09:51:34Z</time>
      </trkpt>
      <trkpt lat="43.09509" lon="5.96317">
        <ele>3.021240234375</ele>
        <time>2015-07-22T09:52:04Z</time>
      </trkpt>
      <trkpt lat="43.09508" lon="5.96327">
        <ele>2.5406494140625</ele>
        <time>2015-07-22T09:52:09Z</time>
      </trkpt>
      <trkpt lat="43.09517" lon="5.96385">
        <ele>2.5406494140625</ele>
        <time>2015-07-22T09:52:34Z</time>
      </trkpt>
      <trkpt lat="43.09514" lon="5.96444">
        <ele>2.5406494140625</ele>
        <time>2015-07-22T09:52:54Z</time>
      </trkpt>
      <trkpt lat="43.09518" lon="5.96531">
        <ele>2.5406494140625</ele>
        <time>2015-07-22T09:53:24Z</time>
      </trkpt>
      <trkpt lat="43.09515" lon="5.966">
        <ele>2.5406494140625</ele>
        <time>2015-07-22T09:53:44Z</time>
      </trkpt>
      <trkpt lat="43.09506" lon="5.96646">
        <ele>3.021240234375</ele>
        <time>2015-07-22T09:54:04Z</time>
      </trkpt>
      <trkpt lat="43.09502" lon="5.96717">
        <ele>2.5406494140625</ele>
        <time>2015-07-22T09:54:29Z</time>
      </trkpt>
      <trkpt lat="43.09505" lon="5.96729">
        <ele>12.15380859375</ele>
        <time>2015-07-22T09:54:39Z</time>
      </trkpt>
      <trkpt lat="43.09508" lon="5.96729">
        <ele>3.501953125</ele>
        <time>2015-07-22T09:54:44Z</time>
      </trkpt>
      <trkpt lat="43.0951" lon="5.96733">
        <ele>3.021240234375</ele>
        <time>2015-07-22T09:54:49Z</time>
      </trkpt>
      <trkpt lat="43.09516" lon="5.9677">
        <ele>3.501953125</ele>
        <time>2015-07-22T09:55:14Z</time>
      </trkpt>
      <trkpt lat="43.09516" lon="5.96779">
        <ele>3.021240234375</ele>
        <time>2015-07-22T09:55:19Z</time>
      </trkpt>
      <trkpt lat="43.09526" lon="5.96833">
        <ele>3.021240234375</ele>
        <time>2015-07-22T09:55:44Z</time>
      </trkpt>
      <trkpt lat="43.0952" lon="5.9689">
        <ele>2.5406494140625</ele>
        <time>2015-07-22T09:56:09Z</time>
      </trkpt>
      <trkpt lat="43.09522" lon="5.97007">
        <ele>2.5406494140625</ele>
        <time>2015-07-22T09:56:44Z</time>
      </trkpt>
      <trkpt lat="43.09508" lon="5.97074">
        <ele>3.021240234375</ele>
        <time>2015-07-22T09:57:04Z</time>
      </trkpt>
      <trkpt lat="43.0951" lon="5.97118">
        <ele>2.5406494140625</ele>
        <time>2015-07-22T09:57:18Z</time>
      </trkpt>
      <trkpt lat="43.09518" lon="5.97196">
        <ele>3.021240234375</ele>
        <time>2015-07-22T09:57:43Z</time>
      </trkpt>
      <trkpt lat="43.09522" lon="5.97237">
        <ele>3.021240234375</ele>
        <time>2015-07-22T09:57:58Z</time>
      </trkpt>
      <trkpt lat="43.09532" lon="5.97319">
        <ele>2.5406494140625</ele>
        <time>2015-07-22T09:58:28Z</time>
      </trkpt>
      <trkpt lat="43.09525" lon="5.97388">
        <ele>2.06005859375</ele>
        <time>2015-07-22T09:58:53Z</time>
      </trkpt>
      <trkpt lat="43.09523" lon="5.97503">
        <ele>2.5406494140625</ele>
        <time>2015-07-22T09:59:28Z</time>
      </trkpt>
      <trkpt lat="43.09511" lon="5.97574">
        <ele>2.5406494140625</ele>
        <time>2015-07-22T09:59:53Z</time>
      </trkpt>
      <trkpt lat="43.09522" lon="5.97624">
        <ele>2.06005859375</ele>
        <time>2015-07-22T10:00:08Z</time>
      </trkpt>
      <trkpt lat="43.09514" lon="5.97746">
        <ele>2.06005859375</ele>
        <time>2015-07-22T10:00:48Z</time>
      </trkpt>
      <trkpt lat="43.09517" lon="5.97823">
        <ele>2.5406494140625</ele>
        <time>2015-07-22T10:01:13Z</time>
      </trkpt>
      <trkpt lat="43.09508" lon="5.97911">
        <ele>2.5406494140625</ele>
        <time>2015-07-22T10:01:38Z</time>
      </trkpt>
      <trkpt lat="43.09508" lon="5.98">
        <ele>2.5406494140625</ele>
        <time>2015-07-22T10:02:03Z</time>
      </trkpt>
      <trkpt lat="43.09514" lon="5.9806">
        <ele>3.021240234375</ele>
        <time>2015-07-22T10:02:23Z</time>
      </trkpt>
      <trkpt lat="43.09522" lon="5.98122">
        <ele>3.021240234375</ele>
        <time>2015-07-22T10:02:43Z</time>
      </trkpt>
      <trkpt lat="43.09547" lon="5.9819">
        <ele>3.501953125</ele>
        <time>2015-07-22T10:03:08Z</time>
      </trkpt>
      <trkpt lat="43.09552" lon="5.98212">
        <ele>3.021240234375</ele>
        <time>2015-07-22T10:03:23Z</time>
      </trkpt>
      <trkpt lat="43.09567" lon="5.98219">
        <ele>3.021240234375</ele>
        <time>2015-07-22T10:04:13Z</time>
      </trkpt>
      <trkpt lat="43.09568" lon="5.98236">
        <ele>3.021240234375</ele>
        <time>2015-07-22T10:04:23Z</time>
      </trkpt>
      <trkpt lat="43.0956" lon="5.98318">
        <ele>3.021240234375</ele>
        <time>2015-07-22T10:04:58Z</time>
      </trkpt>
      <trkpt lat="43.09553" lon="5.98405">
        <ele>2.5406494140625</ele>
        <time>2015-07-22T10:05:28Z</time>
      </trkpt>
      <trkpt lat="43.09551" lon="5.98473">
        <ele>3.021240234375</ele>
        <time>2015-07-22T10:05:53Z</time>
      </trkpt>
      <trkpt lat="43.09552" lon="5.98532">
        <ele>2.5406494140625</ele>
        <time>2015-07-22T10:06:13Z</time>
      </trkpt>
      <trkpt lat="43.09541" lon="5.98592">
        <ele>2.5406494140625</ele>
        <time>2015-07-22T10:06:33Z</time>
      </trkpt>
      <trkpt lat="43.09538" lon="5.9866">
        <ele>3.501953125</ele>
        <time>2015-07-22T10:06:58Z</time>
      </trkpt>
      <trkpt lat="43.09539" lon="5.98673">
        <ele>3.021240234375</ele>
        <time>2015-07-22T10:07:03Z</time>
      </trkpt>
      <trkpt lat="43.0954" lon="5.98719">
        <ele>3.021240234375</ele>
        <time>2015-07-22T10:07:18Z</time>
      </trkpt>
      <trkpt lat="43.09537" lon="5.98769">
        <ele>3.021240234375</ele>
        <time>2015-07-22T10:07:34Z</time>
      </trkpt>
      <trkpt lat="43.09532" lon="5.98836">
        <ele>2.5406494140625</ele>
        <time>2015-07-22T10:07:54Z</time>
      </trkpt>
      <trkpt lat="43.09527" lon="5.98853">
        <ele>2.5406494140625</ele>
        <time>2015-07-22T10:07:59Z</time>
      </trkpt>
      <trkpt lat="43.09528" lon="5.98925">
        <ele>3.501953125</ele>
        <time>2015-07-22T10:08:24Z</time>
      </trkpt>
      <trkpt lat="43.09527" lon="5.98971">
        <ele>3.501953125</ele>
        <time>2015-07-22T10:08:39Z</time>
      </trkpt>
      <trkpt lat="43.09518" lon="5.99075">
        <ele>3.021240234375</ele>
        <time>2015-07-22T10:09:09Z</time>
      </trkpt>
      <trkpt lat="43.09515" lon="5.99155">
        <ele>3.021240234375</ele>
        <time>2015-07-22T10:09:34Z</time>
      </trkpt>
      <trkpt lat="43.09507" lon="5.99228">
        <ele>3.501953125</ele>
        <time>2015-07-22T10:09:54Z</time>
      </trkpt>
      <trkpt lat="43.09501" lon="5.99316">
        <ele>3.021240234375</ele>
        <time>2015-07-22T10:10:19Z</time>
      </trkpt>
      <trkpt lat="43.095" lon="5.99336">
        <ele>3.501953125</ele>
        <time>2015-07-22T10:10:30Z</time>
      </trkpt>
      <trkpt lat="43.09494" lon="5.99416">
        <ele>3.021240234375</ele>
        <time>2015-07-22T10:10:55Z</time>
      </trkpt>
      <trkpt lat="43.09487" lon="5.99464">
        <ele>3.021240234375</ele>
        <time>2015-07-22T10:11:10Z</time>
      </trkpt>
      <trkpt lat="43.09478" lon="5.99555">
        <ele>3.021240234375</ele>
        <time>2015-07-22T10:11:35Z</time>
      </trkpt>
      <trkpt lat="43.09473" lon="5.99638">
        <ele>3.021240234375</ele>
        <time>2015-07-22T10:12:00Z</time>
      </trkpt>
      <trkpt lat="43.09471" lon="5.99705">
        <ele>3.501953125</ele>
        <time>2015-07-22T10:12:20Z</time>
      </trkpt>
      <trkpt lat="43.0947" lon="5.99776">
        <ele>3.021240234375</ele>
        <time>2015-07-22T10:12:40Z</time>
      </trkpt>
      <trkpt lat="43.09472" lon="5.99798">
        <ele>3.501953125</ele>
        <time>2015-07-22T10:12:45Z</time>
      </trkpt>
      <trkpt lat="43.09473" lon="5.9985">
        <ele>3.982666015625</ele>
        <time>2015-07-22T10:13:00Z</time>
      </trkpt>
      <trkpt lat="43.09474" lon="5.99915">
        <ele>3.982666015625</ele>
        <time>2015-07-22T10:13:25Z</time>
      </trkpt>
      <trkpt lat="43.09471" lon="5.99945">
        <ele>3.982666015625</ele>
        <time>2015-07-22T10:13:40Z</time>
      </trkpt>
      <trkpt lat="43.09472" lon="5.99974">
        <ele>3.982666015625</ele>
        <time>2015-07-22T10:14:00Z</time>
      </trkpt>
      <trkpt lat="43.09469" lon="6.0001">
        <ele>3.982666015625</ele>
        <time>2015-07-22T10:14:30Z</time>
      </trkpt>
      <trkpt lat="43.09464" lon="6.00082">
        <ele>3.982666015625</ele>
        <time>2015-07-22T10:15:00Z</time>
      </trkpt>
      <trkpt lat="43.09463" lon="6.00114">
        <ele>3.982666015625</ele>
        <time>2015-07-22T10:15:10Z</time>
      </trkpt>
      <trkpt lat="43.09459" lon="6.00146">
        <ele>3.501953125</ele>
        <time>2015-07-22T10:15:26Z</time>
      </trkpt>
      <trkpt lat="43.09449" lon="6.00209">
        <ele>3.501953125</ele>
        <time>2015-07-22T10:15:51Z</time>
      </trkpt>
      <trkpt lat="43.09441" lon="6.00277">
        <ele>3.021240234375</ele>
        <time>2015-07-22T10:16:16Z</time>
      </trkpt>
      <trkpt lat="43.09432" lon="6.00335">
        <ele>3.501953125</ele>
        <time>2015-07-22T10:16:36Z</time>
      </trkpt>
      <trkpt lat="43.0942" lon="6.00428">
        <ele>3.501953125</ele>
        <time>2015-07-22T10:17:01Z</time>
      </trkpt>
      <trkpt lat="43.09421" lon="6.00498">
        <ele>3.982666015625</ele>
        <time>2015-07-22T10:17:20Z</time>
      </trkpt>
      <trkpt lat="43.09414" lon="6.00588">
        <ele>3.501953125</ele>
        <time>2015-07-22T10:17:50Z</time>
      </trkpt>
      <trkpt lat="43.09409" lon="6.00664">
        <ele>3.501953125</ele>
        <time>2015-07-22T10:18:15Z</time>
      </trkpt>
      <trkpt lat="43.09395" lon="6.00726">
        <ele>3.501953125</ele>
        <time>2015-07-22T10:18:40Z</time>
      </trkpt>
      <trkpt lat="43.09386" lon="6.00796">
        <ele>3.982666015625</ele>
        <time>2015-07-22T10:19:05Z</time>
      </trkpt>
      <trkpt lat="43.09387" lon="6.00842">
        <ele>3.501953125</ele>
        <time>2015-07-22T10:19:25Z</time>
      </trkpt>
      <trkpt lat="43.09372" lon="6.00916">
        <ele>3.501953125</ele>
        <time>2015-07-22T10:19:55Z</time>
      </trkpt>
      <trkpt lat="43.09372" lon="6.00932">
        <ele>3.501953125</ele>
        <time>2015-07-22T10:20:00Z</time>
      </trkpt>
      <trkpt lat="43.09364" lon="6.01011">
        <ele>3.982666015625</ele>
        <time>2015-07-22T10:20:25Z</time>
      </trkpt>
      <trkpt lat="43.09352" lon="6.01063">
        <ele>3.982666015625</ele>
        <time>2015-07-22T10:20:45Z</time>
      </trkpt>
      <trkpt lat="43.09348" lon="6.01093">
        <ele>3.982666015625</ele>
        <time>2015-07-22T10:20:55Z</time>
      </trkpt>
      <trkpt lat="43.09341" lon="6.01178">
        <ele>3.982666015625</ele>
        <time>2015-07-22T10:21:25Z</time>
      </trkpt>
      <trkpt lat="43.09342" lon="6.01191">
        <ele>3.501953125</ele>
        <time>2015-07-22T10:21:30Z</time>
      </trkpt>
      <trkpt lat="43.09335" lon="6.01284">
        <ele>3.982666015625</ele>
        <time>2015-07-22T10:22:00Z</time>
      </trkpt>
      <trkpt lat="43.09328" lon="6.01359">
        <ele>3.501953125</ele>
        <time>2015-07-22T10:22:25Z</time>
      </trkpt>
      <trkpt lat="43.09309" lon="6.01444">
        <ele>3.501953125</ele>
        <time>2015-07-22T10:22:50Z</time>
      </trkpt>
      <trkpt lat="43.09308" lon="6.01472">
        <ele>3.501953125</ele>
        <time>2015-07-22T10:23:00Z</time>
      </trkpt>
      <trkpt lat="43.09297" lon="6.01563">
        <ele>4.4632568359375</ele>
        <time>2015-07-22T10:23:25Z</time>
      </trkpt>
      <trkpt lat="43.09289" lon="6.01615">
        <ele>3.982666015625</ele>
        <time>2015-07-22T10:23:40Z</time>
      </trkpt>
      <trkpt lat="43.09283" lon="6.01717">
        <ele>4.4632568359375</ele>
        <time>2015-07-22T10:24:10Z</time>
      </trkpt>
      <trkpt lat="43.09283" lon="6.01726">
        <ele>4.4632568359375</ele>
        <time>2015-07-22T10:24:15Z</time>
      </trkpt>
      <trkpt lat="43.09273" lon="6.01808">
        <ele>3.982666015625</ele>
        <time>2015-07-22T10:24:45Z</time>
      </trkpt>
      <trkpt lat="43.09269" lon="6.01825">
        <ele>3.982666015625</ele>
        <time>2015-07-22T10:24:50Z</time>
      </trkpt>
      <trkpt lat="43.09254" lon="6.01938">
        <ele>3.982666015625</ele>
        <time>2015-07-22T10:25:25Z</time>
      </trkpt>
      <trkpt lat="43.09252" lon="6.01973">
        <ele>3.982666015625</ele>
        <time>2015-07-22T10:25:35Z</time>
      </trkpt>
      <trkpt lat="43.09241" lon="6.02001">
        <ele>3.982666015625</ele>
        <time>2015-07-22T10:25:45Z</time>
      </trkpt>
      <trkpt lat="43.09224" lon="6.02116">
        <ele>4.4632568359375</ele>
        <time>2015-07-22T10:26:15Z</time>
      </trkpt>
      <trkpt lat="43.09213" lon="6.02173">
        <ele>4.4632568359375</ele>
        <time>2015-07-22T10:26:35Z</time>
      </trkpt>
      <trkpt lat="43.09198" lon="6.02261">
        <ele>3.982666015625</ele>
        <time>2015-07-22T10:27:00Z</time>
      </trkpt>
      <trkpt lat="43.09193" lon="6.02326">
        <ele>3.982666015625</ele>
        <time>2015-07-22T10:27:19Z</time>
      </trkpt>
      <trkpt lat="43.09185" lon="6.02401">
        <ele>3.982666015625</ele>
        <time>2015-07-22T10:27:39Z</time>
      </trkpt>
      <trkpt lat="43.09179" lon="6.02462">
        <ele>4.94384765625</ele>
        <time>2015-07-22T10:28:04Z</time>
      </trkpt>
      <trkpt lat="43.0918" lon="6.02473">
        <ele>4.4632568359375</ele>
        <time>2015-07-22T10:28:24Z</time>
      </trkpt>
      <trkpt lat="43.09181" lon="6.02473">
        <ele>4.94384765625</ele>
        <time>2015-07-22T10:29:22Z</time>
      </trkpt>
      <trkpt lat="43.09179" lon="6.02476">
        <ele>5.424560546875</ele>
        <time>2015-07-22T10:29:57Z</time>
      </trkpt>
      <trkpt lat="43.09178" lon="6.02478">
        <ele>-0.3433837890625</ele>
        <time>2015-07-22T10:29:58Z</time>
      </trkpt>
      <trkpt lat="43.09188" lon="6.0247">
        <ele>83.291381835938</ele>
        <time>2015-07-22T16:38:16Z</time>
      </trkpt>
      <trkpt lat="43.09188" lon="6.0247">
        <ele>82.330078125</ele>
        <time>2015-07-22T16:38:18Z</time>
      </trkpt>
      <trkpt lat="43.09188" lon="6.0247">
        <ele>78.484741210938</ele>
        <time>2015-07-22T16:38:56Z</time>
      </trkpt>
      <trkpt lat="43.09188" lon="6.0247">
        <ele>77.5234375</ele>
        <time>2015-07-22T16:38:58Z</time>
      </trkpt>
      <trkpt lat="43.09188" lon="6.0247">
        <ele>83.291381835938</ele>
        <time>2015-07-22T16:38:59Z</time>
      </trkpt>
      <trkpt lat="43.09188" lon="6.0247">
        <ele>77.042846679688</ele>
        <time>2015-07-22T16:39:13Z</time>
      </trkpt>
      <trkpt lat="43.09188" lon="6.0247">
        <ele>77.042846679688</ele>
        <time>2015-07-22T16:39:14Z</time>
      </trkpt>
      <trkpt lat="43.09188" lon="6.0247">
        <ele>81.368774414062</ele>
        <time>2015-07-22T16:39:15Z</time>
      </trkpt>
      <trkpt lat="43.09188" lon="6.0247">
        <ele>78.484741210938</ele>
        <time>2015-07-22T16:39:19Z</time>
      </trkpt>
      <trkpt lat="43.09188" lon="6.0247">
        <ele>78.484741210938</ele>
        <time>2015-07-22T16:39:20Z</time>
      </trkpt>
      <trkpt lat="43.09188" lon="6.0247">
        <ele>81.368774414062</ele>
        <time>2015-07-22T16:39:21Z</time>
      </trkpt>
      <trkpt lat="43.09188" lon="6.0247">
        <ele>82.330078125</ele>
        <time>2015-07-22T16:39:31Z</time>
      </trkpt>
      <trkpt lat="43.09188" lon="6.0247">
        <ele>79.446044921875</ele>
        <time>2015-07-22T16:39:33Z</time>
      </trkpt>
      <trkpt lat="43.09188" lon="6.0247">
        <ele>81.849365234375</ele>
        <time>2015-07-22T16:39:35Z</time>
      </trkpt>
      <trkpt lat="43.09188" lon="6.0247">
        <ele>82.330078125</ele>
        <time>2015-07-22T16:39:37Z</time>
      </trkpt>
      <trkpt lat="43.09188" lon="6.0247">
        <ele>78.965454101562</ele>
        <time>2015-07-22T16:39:44Z</time>
      </trkpt>
      <trkpt lat="43.09188" lon="6.0247">
        <ele>77.042846679688</ele>
        <time>2015-07-22T16:39:45Z</time>
      </trkpt>
      <trkpt lat="43.09188" lon="6.0247">
        <ele>82.330078125</ele>
        <time>2015-07-22T16:39:46Z</time>
      </trkpt>
      <trkpt lat="43.09188" lon="6.0247">
        <ele>78.965454101562</ele>
        <time>2015-07-22T16:39:50Z</time>
      </trkpt>
      <trkpt lat="43.09188" lon="6.0247">
        <ele>82.330078125</ele>
        <time>2015-07-22T16:39:51Z</time>
      </trkpt>
      <trkpt lat="43.09188" lon="6.0247">
        <ele>78.965454101562</ele>
        <time>2015-07-22T16:39:53Z</time>
      </trkpt>
      <trkpt lat="43.09188" lon="6.0247">
        <ele>81.849365234375</ele>
        <time>2015-07-22T16:39:54Z</time>
      </trkpt>
      <trkpt lat="43.09188" lon="6.0247">
        <ele>79.926635742188</ele>
        <time>2015-07-22T16:39:55Z</time>
      </trkpt>
      <trkpt lat="43.09188" lon="6.0247">
        <ele>82.810791015625</ele>
        <time>2015-07-22T16:39:56Z</time>
      </trkpt>
      <trkpt lat="43.09188" lon="6.0247">
        <ele>77.042846679688</ele>
        <time>2015-07-22T16:39:59Z</time>
      </trkpt>
      <trkpt lat="43.09188" lon="6.0247">
        <ele>77.042846679688</ele>
        <time>2015-07-22T16:40:00Z</time>
      </trkpt>
      <trkpt lat="43.09188" lon="6.0247">
        <ele>80.407470703125</ele>
        <time>2015-07-22T16:40:01Z</time>
      </trkpt>
      <trkpt lat="43.09188" lon="6.0247">
        <ele>78.484741210938</ele>
        <time>2015-07-22T16:40:02Z</time>
      </trkpt>
      <trkpt lat="43.09188" lon="6.0247">
        <ele>82.330078125</ele>
        <time>2015-07-22T16:40:03Z</time>
      </trkpt>
      <trkpt lat="43.09188" lon="6.0247">
        <ele>79.926635742188</ele>
        <time>2015-07-22T16:40:54Z</time>
      </trkpt>
      <trkpt lat="43.09188" lon="6.0247">
        <ele>82.810791015625</ele>
        <time>2015-07-22T16:41:00Z</time>
      </trkpt>
      <trkpt lat="43.09188" lon="6.0247">
        <ele>82.810791015625</ele>
        <time>2015-07-22T16:41:01Z</time>
      </trkpt>
      <trkpt lat="43.09188" lon="6.0247">
        <ele>78.484741210938</ele>
        <time>2015-07-22T16:41:04Z</time>
      </trkpt>
      <trkpt lat="43.09188" lon="6.0247">
        <ele>82.330078125</ele>
        <time>2015-07-22T16:41:05Z</time>
      </trkpt>
      <trkpt lat="43.09188" lon="6.0247">
        <ele>81.368774414062</ele>
        <time>2015-07-22T16:45:20Z</time>
      </trkpt>
      <trkpt lat="43.09188" lon="6.0247">
        <ele>78.484741210938</ele>
        <time>2015-07-22T16:45:23Z</time>
      </trkpt>
      <trkpt lat="43.09188" lon="6.0247">
        <ele>80.407470703125</ele>
        <time>2015-07-22T16:45:24Z</time>
      </trkpt>
      <trkpt lat="43.09188" lon="6.0247">
        <ele>81.849365234375</ele>
        <time>2015-07-22T16:45:28Z</time>
      </trkpt>
      <trkpt lat="43.09188" lon="6.0247">
        <ele>82.330078125</ele>
        <time>2015-07-22T16:45:30Z</time>
      </trkpt>
      <trkpt lat="43.09188" lon="6.0247">
        <ele>78.965454101562</ele>
        <time>2015-07-22T16:45:38Z</time>
      </trkpt>
      <trkpt lat="43.09188" lon="6.0247">
        <ele>78.965454101562</ele>
        <time>2015-07-22T16:45:39Z</time>
      </trkpt>
      <trkpt lat="43.09188" lon="6.0247">
        <ele>77.5234375</ele>
        <time>2015-07-22T16:45:40Z</time>
      </trkpt>
      <trkpt lat="43.09188" lon="6.0247">
        <ele>81.849365234375</ele>
        <time>2015-07-22T16:45:41Z</time>
      </trkpt>
      <trkpt lat="43.09188" lon="6.0247">
        <ele>78.965454101562</ele>
        <time>2015-07-22T16:46:45Z</time>
      </trkpt>
      <trkpt lat="43.09188" lon="6.0247">
        <ele>78.965454101562</ele>
        <time>2015-07-22T16:46:46Z</time>
      </trkpt>
      <trkpt lat="43.09188" lon="6.0247">
        <ele>82.330078125</ele>
        <time>2015-07-22T16:46:47Z</time>
      </trkpt>
      <trkpt lat="43.09188" lon="6.0247">
        <ele>77.5234375</ele>
        <time>2015-07-22T16:46:52Z</time>
      </trkpt>
      <trkpt lat="43.09188" lon="6.0247">
        <ele>77.5234375</ele>
        <time>2015-07-22T16:46:53Z</time>
      </trkpt>
      <trkpt lat="43.09188" lon="6.0247">
        <ele>78.965454101562</ele>
        <time>2015-07-22T16:46:54Z</time>
      </trkpt>
      <trkpt lat="43.09188" lon="6.0247">
        <ele>80.407470703125</ele>
        <time>2015-07-22T16:46:55Z</time>
      </trkpt>
      <trkpt lat="43.09188" lon="6.0247">
        <ele>79.926635742188</ele>
        <time>2015-07-22T16:46:59Z</time>
      </trkpt>
      <trkpt lat="43.09188" lon="6.0247">
        <ele>81.368774414062</ele>
        <time>2015-07-22T16:47:00Z</time>
      </trkpt>
      <trkpt lat="43.09188" lon="6.0247">
        <ele>72.236206054688</ele>
        <time>2015-07-22T16:47:43Z</time>
      </trkpt>
      <trkpt lat="43.09188" lon="6.0247">
        <ele>72.236206054688</ele>
        <time>2015-07-22T16:47:44Z</time>
      </trkpt>
      <trkpt lat="43.09188" lon="6.0247">
        <ele>85.694580078125</ele>
        <time>2015-07-22T16:47:45Z</time>
      </trkpt>
      <trkpt lat="43.09188" lon="6.0247">
        <ele>83.77197265625</ele>
        <time>2015-07-22T16:47:46Z</time>
      </trkpt>
      <trkpt lat="43.09188" lon="6.0247">
        <ele>80.88818359375</ele>
        <time>2015-07-22T16:47:50Z</time>
      </trkpt>
      <trkpt lat="43.09188" lon="6.0247">
        <ele>79.446044921875</ele>
        <time>2015-07-22T16:47:53Z</time>
      </trkpt>
      <trkpt lat="43.09188" lon="6.0247">
        <ele>81.849365234375</ele>
        <time>2015-07-22T16:47:54Z</time>
      </trkpt>
      <trkpt lat="43.09188" lon="6.0247">
        <ele>77.042846679688</ele>
        <time>2015-07-22T16:48:17Z</time>
      </trkpt>
      <trkpt lat="43.09188" lon="6.0247">
        <ele>80.88818359375</ele>
        <time>2015-07-22T16:48:18Z</time>
      </trkpt>
      <trkpt lat="43.09188" lon="6.0247">
        <ele>80.88818359375</ele>
        <time>2015-07-22T16:48:22Z</time>
      </trkpt>
      <trkpt lat="43.09188" lon="6.0247">
        <ele>81.368774414062</ele>
        <time>2015-07-22T16:48:33Z</time>
      </trkpt>
      <trkpt lat="43.09188" lon="6.0247">
        <ele>83.77197265625</ele>
        <time>2015-07-22T16:48:34Z</time>
      </trkpt>
      <trkpt lat="43.09188" lon="6.0247">
        <ele>82.330078125</ele>
        <time>2015-07-22T16:48:36Z</time>
      </trkpt>
      <trkpt lat="43.09188" lon="6.0247">
        <ele>78.965454101562</ele>
        <time>2015-07-22T16:49:40Z</time>
      </trkpt>
      <trkpt lat="43.09188" lon="6.0247">
        <ele>78.965454101562</ele>
        <time>2015-07-22T16:49:41Z</time>
      </trkpt>
      <trkpt lat="43.09188" lon="6.0247">
        <ele>82.330078125</ele>
        <time>2015-07-22T16:49:44Z</time>
      </trkpt>
    </trkseg>
  </trk>
</gpx>